<?xml version="1.0" encoding="UTF-8" standalone="no" ?>
<gpx xmlns="http://www.topografix.com/GPX/1/1" xmlns:xsi="http://www.w3.org/2001/XMLSchema-instance" xsi:schemaLocation="http://www.topografix.com/GPX/1/1 http://www.topografix.com/GPX/1/1/gpx.xsd" version="1.1" creator="VisuGPX - https://www.visugpx.com">
  <metadata>
    <name>flines long buisson 53 km</name>
  </metadata>
  <trk>
    <name><![CDATA[flines long buisson 53 km]]></name>
    <trkseg>
      <trkpt lat="50.50334" lon="3.46406">
        <ele>21.625424</ele>
        <time>2020-08-18T08:22:16.228Z</time>
      </trkpt>
      <trkpt lat="50.50337" lon="3.46412">
        <ele>21.625424</ele>
        <time>2020-08-18T08:22:21.376Z</time>
      </trkpt>
      <trkpt lat="50.50356" lon="3.46426">
        <ele>21.625424</ele>
        <time>2020-08-18T08:22:45.043Z</time>
      </trkpt>
      <trkpt lat="50.50362" lon="3.46434">
        <ele>21.625424</ele>
        <time>2020-08-18T08:22:54.007Z</time>
      </trkpt>
      <trkpt lat="50.50361" lon="3.46454">
        <ele>21.625424</ele>
        <time>2020-08-18T08:23:08.353Z</time>
      </trkpt>
      <trkpt lat="50.50405" lon="3.46483">
        <ele>21.66421</ele>
        <time>2020-08-18T08:23:16.789Z</time>
      </trkpt>
      <trkpt lat="50.50523" lon="3.46572">
        <ele>22.995372</ele>
        <time>2020-08-18T08:23:41.633Z</time>
      </trkpt>
      <trkpt lat="50.50681" lon="3.46651">
        <ele>24.600514</ele>
        <time>2020-08-18T08:24:14.059Z</time>
      </trkpt>
      <trkpt lat="50.50708" lon="3.46672">
        <ele>24.883676</ele>
        <time>2020-08-18T08:24:19.393Z</time>
      </trkpt>
      <trkpt lat="50.50735" lon="3.46707">
        <ele>25.162578</ele>
        <time>2020-08-18T08:24:25.287Z</time>
      </trkpt>
      <trkpt lat="50.50778" lon="3.46766">
        <ele>25.165642</ele>
        <time>2020-08-18T08:24:34.408Z</time>
      </trkpt>
      <trkpt lat="50.50821" lon="3.46826">
        <ele>25.168717</ele>
        <time>2020-08-18T08:24:43.001Z</time>
      </trkpt>
      <trkpt lat="50.50831" lon="3.4684">
        <ele>25.169414</ele>
        <time>2020-08-18T08:24:44.826Z</time>
      </trkpt>
      <trkpt lat="50.50837" lon="3.46857">
        <ele>25.170085</ele>
        <time>2020-08-18T08:24:46.599Z</time>
      </trkpt>
      <trkpt lat="50.5084" lon="3.46941">
        <ele>25.077212</ele>
        <time>2020-08-18T08:24:53.644Z</time>
      </trkpt>
      <trkpt lat="50.5085" lon="3.46978">
        <ele>24.951762</ele>
        <time>2020-08-18T08:24:57.059Z</time>
      </trkpt>
      <trkpt lat="50.50871" lon="3.47017">
        <ele>24.793257</ele>
        <time>2020-08-18T08:25:01.380Z</time>
      </trkpt>
      <trkpt lat="50.50899" lon="3.47062">
        <ele>24.599411</ele>
        <time>2020-08-18T08:25:06.658Z</time>
      </trkpt>
      <trkpt lat="50.50936" lon="3.47116">
        <ele>24.351733</ele>
        <time>2020-08-18T08:25:13.317Z</time>
      </trkpt>
      <trkpt lat="50.50985" lon="3.47169">
        <ele>24.084785</ele>
        <time>2020-08-18T08:25:21.311Z</time>
      </trkpt>
      <trkpt lat="50.51052" lon="3.47236">
        <ele>23.738153</ele>
        <time>2020-08-18T08:25:31.940Z</time>
      </trkpt>
      <trkpt lat="50.51059" lon="3.47247">
        <ele>23.696706</ele>
        <time>2020-08-18T08:25:33.231Z</time>
      </trkpt>
      <trkpt lat="50.51066" lon="3.47262">
        <ele>23.643986</ele>
        <time>2020-08-18T08:25:34.854Z</time>
      </trkpt>
      <trkpt lat="50.51065" lon="3.47278">
        <ele>23.598688</ele>
        <time>2020-08-18T08:25:36.272Z</time>
      </trkpt>
      <trkpt lat="50.51006" lon="3.47445">
        <ele>23.006794</ele>
        <time>2020-08-18T08:25:52.597Z</time>
      </trkpt>
      <trkpt lat="50.51016" lon="3.47475">
        <ele>22.898764</ele>
        <time>2020-08-18T08:25:55.539Z</time>
      </trkpt>
      <trkpt lat="50.51082" lon="3.4755">
        <ele>22.483359</ele>
        <time>2020-08-18T08:26:06.028Z</time>
      </trkpt>
      <trkpt lat="50.51104" lon="3.47596">
        <ele>22.282605</ele>
        <time>2020-08-18T08:26:10.692Z</time>
      </trkpt>
      <trkpt lat="50.5111" lon="3.47622">
        <ele>22.184771</ele>
        <time>2020-08-18T08:26:12.903Z</time>
      </trkpt>
      <trkpt lat="50.51109" lon="3.47654">
        <ele>22.074774</ele>
        <time>2020-08-18T08:26:15.611Z</time>
      </trkpt>
      <trkpt lat="50.51104" lon="3.47687">
        <ele>21.9566</ele>
        <time>2020-08-18T08:26:18.347Z</time>
      </trkpt>
      <trkpt lat="50.5108" lon="3.47774">
        <ele>21.62438</ele>
        <time>2020-08-18T08:26:26.619Z</time>
      </trkpt>
      <trkpt lat="50.51082" lon="3.47786">
        <ele>21.616376</ele>
        <time>2020-08-18T08:26:27.534Z</time>
      </trkpt>
      <trkpt lat="50.5109" lon="3.47798">
        <ele>21.606525</ele>
        <time>2020-08-18T08:26:29.317Z</time>
      </trkpt>
      <trkpt lat="50.51109" lon="3.47824">
        <ele>21.584967</ele>
        <time>2020-08-18T08:26:32.702Z</time>
      </trkpt>
      <trkpt lat="50.51122" lon="3.47856">
        <ele>21.563819</ele>
        <time>2020-08-18T08:26:36.465Z</time>
      </trkpt>
      <trkpt lat="50.51125" lon="3.47964">
        <ele>21.503866</ele>
        <time>2020-08-18T08:26:46.568Z</time>
      </trkpt>
      <trkpt lat="50.51129" lon="3.48001">
        <ele>21.483025</ele>
        <time>2020-08-18T08:26:49.993Z</time>
      </trkpt>
      <trkpt lat="50.51132" lon="3.48019">
        <ele>21.472761</ele>
        <time>2020-08-18T08:26:52.007Z</time>
      </trkpt>
      <trkpt lat="50.51138" lon="3.48111">
        <ele>21.463528</ele>
        <time>2020-08-18T08:27:00.804Z</time>
      </trkpt>
      <trkpt lat="50.51143" lon="3.48169">
        <ele>21.461569</ele>
        <time>2020-08-18T08:27:06.277Z</time>
      </trkpt>
      <trkpt lat="50.51135" lon="3.48237">
        <ele>21.459256</ele>
        <time>2020-08-18T08:27:12.725Z</time>
      </trkpt>
      <trkpt lat="50.5113" lon="3.48251">
        <ele>21.458741</ele>
        <time>2020-08-18T08:27:14.191Z</time>
      </trkpt>
      <trkpt lat="50.5112" lon="3.48278">
        <ele>21.457675</ele>
        <time>2020-08-18T08:27:16.972Z</time>
      </trkpt>
      <trkpt lat="50.511" lon="3.48334">
        <ele>21.503565</ele>
        <time>2020-08-18T08:27:23.166Z</time>
      </trkpt>
      <trkpt lat="50.51092" lon="3.48355">
        <ele>21.533335</ele>
        <time>2020-08-18T08:27:25.604Z</time>
      </trkpt>
      <trkpt lat="50.51087" lon="3.48377">
        <ele>21.563241</ele>
        <time>2020-08-18T08:27:27.980Z</time>
      </trkpt>
      <trkpt lat="50.51083" lon="3.48458">
        <ele>21.665531</ele>
        <time>2020-08-18T08:27:36.779Z</time>
      </trkpt>
      <trkpt lat="50.51082" lon="3.4846">
        <ele>21.668181</ele>
        <time>2020-08-18T08:27:36.994Z</time>
      </trkpt>
      <trkpt lat="50.5108" lon="3.48506">
        <ele>21.726461</ele>
        <time>2020-08-18T08:27:41.483Z</time>
      </trkpt>
      <trkpt lat="50.51082" lon="3.48534">
        <ele>21.76166</ele>
        <time>2020-08-18T08:27:44.366Z</time>
      </trkpt>
      <trkpt lat="50.51087" lon="3.48604">
        <ele>21.73733</ele>
        <time>2020-08-18T08:27:51.030Z</time>
      </trkpt>
      <trkpt lat="50.51084" lon="3.48625">
        <ele>21.682894</ele>
        <time>2020-08-18T08:27:53.237Z</time>
      </trkpt>
      <trkpt lat="50.51065" lon="3.48691">
        <ele>21.501906</ele>
        <time>2020-08-18T08:27:59.900Z</time>
      </trkpt>
      <trkpt lat="50.51052" lon="3.48729">
        <ele>21.39249</ele>
        <time>2020-08-18T08:28:03.757Z</time>
      </trkpt>
      <trkpt lat="50.51035" lon="3.48756">
        <ele>21.298268</ele>
        <time>2020-08-18T08:28:06.927Z</time>
      </trkpt>
      <trkpt lat="50.51022" lon="3.48759">
        <ele>21.244225</ele>
        <time>2020-08-18T08:28:08.722Z</time>
      </trkpt>
      <trkpt lat="50.5095" lon="3.4873">
        <ele>20.648356</ele>
        <time>2020-08-18T08:28:17.540Z</time>
      </trkpt>
      <trkpt lat="50.50894" lon="3.48736">
        <ele>19.976106</ele>
        <time>2020-08-18T08:28:24.146Z</time>
      </trkpt>
      <trkpt lat="50.50863" lon="3.48799">
        <ele>19.365127</ele>
        <time>2020-08-18T08:28:30.173Z</time>
      </trkpt>
      <trkpt lat="50.50851" lon="3.48822">
        <ele>19.143917</ele>
        <time>2020-08-18T08:28:32.392Z</time>
      </trkpt>
      <trkpt lat="50.50848" lon="3.48828">
        <ele>19.081039</ele>
        <time>2020-08-18T08:28:33.008Z</time>
      </trkpt>
      <trkpt lat="50.50829" lon="3.48861">
        <ele>18.801888</ele>
        <time>2020-08-18T08:28:36.425Z</time>
      </trkpt>
      <trkpt lat="50.50795" lon="3.48891">
        <ele>18.477199</ele>
        <time>2020-08-18T08:28:41.115Z</time>
      </trkpt>
      <trkpt lat="50.50772" lon="3.48889">
        <ele>18.283858</ele>
        <time>2020-08-18T08:28:43.930Z</time>
      </trkpt>
      <trkpt lat="50.50762" lon="3.48885">
        <ele>18.197349</ele>
        <time>2020-08-18T08:28:45.206Z</time>
      </trkpt>
      <trkpt lat="50.5075" lon="3.48876">
        <ele>18.085199</ele>
        <time>2020-08-18T08:28:46.840Z</time>
      </trkpt>
      <trkpt lat="50.50697" lon="3.48851">
        <ele>17.618319</ele>
        <time>2020-08-18T08:28:54.111Z</time>
      </trkpt>
      <trkpt lat="50.50675" lon="3.48848">
        <ele>17.437963</ele>
        <time>2020-08-18T08:28:56.916Z</time>
      </trkpt>
      <trkpt lat="50.50664" lon="3.48854">
        <ele>17.387347</ele>
        <time>2020-08-18T08:28:58.550Z</time>
      </trkpt>
      <trkpt lat="50.50654" lon="3.48871">
        <ele>17.327574</ele>
        <time>2020-08-18T08:29:00.490Z</time>
      </trkpt>
      <trkpt lat="50.5064" lon="3.48922">
        <ele>17.187154</ele>
        <time>2020-08-18T08:29:05.122Z</time>
      </trkpt>
      <trkpt lat="50.50629" lon="3.48944">
        <ele>17.114895</ele>
        <time>2020-08-18T08:29:07.545Z</time>
      </trkpt>
      <trkpt lat="50.50551" lon="3.4902">
        <ele>16.743557</ele>
        <time>2020-08-18T08:29:20.250Z</time>
      </trkpt>
      <trkpt lat="50.50468" lon="3.49131">
        <ele>16.570039</ele>
        <time>2020-08-18T08:29:35.416Z</time>
      </trkpt>
      <trkpt lat="50.50399" lon="3.49173">
        <ele>16.465813</ele>
        <time>2020-08-18T08:29:46.164Z</time>
      </trkpt>
      <trkpt lat="50.5033" lon="3.49228">
        <ele>16.487014</ele>
        <time>2020-08-18T08:29:58.080Z</time>
      </trkpt>
      <trkpt lat="50.50301" lon="3.49249">
        <ele>16.49981</ele>
        <time>2020-08-18T08:30:03.002Z</time>
      </trkpt>
      <trkpt lat="50.50284" lon="3.49261">
        <ele>16.507243</ele>
        <time>2020-08-18T08:30:05.787Z</time>
      </trkpt>
      <trkpt lat="50.50222" lon="3.493">
        <ele>16.515842</ele>
        <time>2020-08-18T08:30:15.772Z</time>
      </trkpt>
      <trkpt lat="50.50197" lon="3.49315">
        <ele>16.477888</ele>
        <time>2020-08-18T08:30:19.627Z</time>
      </trkpt>
      <trkpt lat="50.50191" lon="3.49319">
        <ele>16.467929</ele>
        <time>2020-08-18T08:30:20.686Z</time>
      </trkpt>
      <trkpt lat="50.50184" lon="3.49323">
        <ele>16.457094</ele>
        <time>2020-08-18T08:30:21.672Z</time>
      </trkpt>
      <trkpt lat="50.50056" lon="3.49423">
        <ele>16.272768</ele>
        <time>2020-08-18T08:30:41.592Z</time>
      </trkpt>
      <trkpt lat="50.49891" lon="3.49621">
        <ele>16.46731</ele>
        <time>2020-08-18T08:31:12.994Z</time>
      </trkpt>
      <trkpt lat="50.49885" lon="3.49626">
        <ele>16.489757</ele>
        <time>2020-08-18T08:31:14.055Z</time>
      </trkpt>
      <trkpt lat="50.49872" lon="3.49635">
        <ele>16.545794</ele>
        <time>2020-08-18T08:31:16.572Z</time>
      </trkpt>
      <trkpt lat="50.49868" lon="3.49638">
        <ele>16.559646</ele>
        <time>2020-08-18T08:31:17.175Z</time>
      </trkpt>
      <trkpt lat="50.4984" lon="3.49655">
        <ele>16.671886</ele>
        <time>2020-08-18T08:31:22.274Z</time>
      </trkpt>
      <trkpt lat="50.49786" lon="3.49689">
        <ele>16.890977</ele>
        <time>2020-08-18T08:31:32.263Z</time>
      </trkpt>
      <trkpt lat="50.49674" lon="3.49784">
        <ele>17.098824</ele>
        <time>2020-08-18T08:31:52.985Z</time>
      </trkpt>
      <trkpt lat="50.49561" lon="3.49862">
        <ele>16.961605</ele>
        <time>2020-08-18T08:32:10.259Z</time>
      </trkpt>
      <trkpt lat="50.49552" lon="3.49866">
        <ele>16.912264</ele>
        <time>2020-08-18T08:32:11.554Z</time>
      </trkpt>
      <trkpt lat="50.49546" lon="3.49865">
        <ele>16.886131</ele>
        <time>2020-08-18T08:32:12.192Z</time>
      </trkpt>
      <trkpt lat="50.49496" lon="3.49786">
        <ele>16.536162</ele>
        <time>2020-08-18T08:32:21.507Z</time>
      </trkpt>
      <trkpt lat="50.49442" lon="3.49791">
        <ele>16.287059</ele>
        <time>2020-08-18T08:32:28.569Z</time>
      </trkpt>
      <trkpt lat="50.49419" lon="3.49789">
        <ele>16.251187</ele>
        <time>2020-08-18T08:32:31.495Z</time>
      </trkpt>
      <trkpt lat="50.4937" lon="3.49783">
        <ele>16.175422</ele>
        <time>2020-08-18T08:32:38.197Z</time>
      </trkpt>
      <trkpt lat="50.49356" lon="3.49781">
        <ele>16.153031</ele>
        <time>2020-08-18T08:32:40.148Z</time>
      </trkpt>
      <trkpt lat="50.49327" lon="3.49756">
        <ele>16.101869</ele>
        <time>2020-08-18T08:32:45.118Z</time>
      </trkpt>
      <trkpt lat="50.49308" lon="3.49756">
        <ele>16.073226</ele>
        <time>2020-08-18T08:32:48.090Z</time>
      </trkpt>
      <trkpt lat="50.49288" lon="3.49767">
        <ele>16.040305</ele>
        <time>2020-08-18T08:32:51.415Z</time>
      </trkpt>
      <trkpt lat="50.49284" lon="3.49771">
        <ele>16.032619</ele>
        <time>2020-08-18T08:32:52.218Z</time>
      </trkpt>
      <trkpt lat="50.49282" lon="3.49773">
        <ele>16.028684</ele>
        <time>2020-08-18T08:32:52.777Z</time>
      </trkpt>
      <trkpt lat="50.49208" lon="3.49841">
        <ele>16.284908</ele>
        <time>2020-08-18T08:33:06.320Z</time>
      </trkpt>
      <trkpt lat="50.49201" lon="3.49848">
        <ele>16.314697</ele>
        <time>2020-08-18T08:33:07.858Z</time>
      </trkpt>
      <trkpt lat="50.49196" lon="3.49853">
        <ele>16.333404</ele>
        <time>2020-08-18T08:33:08.731Z</time>
      </trkpt>
      <trkpt lat="50.49191" lon="3.49853">
        <ele>16.3525</ele>
        <time>2020-08-18T08:33:09.699Z</time>
      </trkpt>
      <trkpt lat="50.49094" lon="3.49838">
        <ele>16.613485</ele>
        <time>2020-08-18T08:33:25.735Z</time>
      </trkpt>
      <trkpt lat="50.49082" lon="3.49844">
        <ele>16.598719</ele>
        <time>2020-08-18T08:33:27.774Z</time>
      </trkpt>
      <trkpt lat="50.49" lon="3.49921">
        <ele>16.489211</ele>
        <time>2020-08-18T08:33:41.438Z</time>
      </trkpt>
      <trkpt lat="50.48953" lon="3.49914">
        <ele>16.43522</ele>
        <time>2020-08-18T08:33:47.744Z</time>
      </trkpt>
      <trkpt lat="50.4895" lon="3.49913">
        <ele>16.431857</ele>
        <time>2020-08-18T08:33:48.073Z</time>
      </trkpt>
      <trkpt lat="50.48934" lon="3.49909">
        <ele>16.395855</ele>
        <time>2020-08-18T08:33:50.274Z</time>
      </trkpt>
      <trkpt lat="50.48927" lon="3.49907">
        <ele>16.373737</ele>
        <time>2020-08-18T08:33:51.306Z</time>
      </trkpt>
      <trkpt lat="50.48914" lon="3.49904">
        <ele>16.335727</ele>
        <time>2020-08-18T08:33:53.043Z</time>
      </trkpt>
      <trkpt lat="50.48911" lon="3.49902">
        <ele>16.324991</ele>
        <time>2020-08-18T08:33:53.590Z</time>
      </trkpt>
      <trkpt lat="50.48908" lon="3.49897">
        <ele>16.311854</ele>
        <time>2020-08-18T08:33:54.133Z</time>
      </trkpt>
      <trkpt lat="50.48906" lon="3.49893">
        <ele>16.300893</ele>
        <time>2020-08-18T08:33:54.679Z</time>
      </trkpt>
      <trkpt lat="50.48879" lon="3.49766">
        <ele>16.049312</ele>
        <time>2020-08-18T08:34:06.506Z</time>
      </trkpt>
      <trkpt lat="50.4887" lon="3.49728">
        <ele>15.974495</ele>
        <time>2020-08-18T08:34:10.040Z</time>
      </trkpt>
      <trkpt lat="50.48861" lon="3.49706">
        <ele>15.923376</ele>
        <time>2020-08-18T08:34:12.577Z</time>
      </trkpt>
      <trkpt lat="50.48847" lon="3.49688">
        <ele>15.883461</ele>
        <time>2020-08-18T08:34:15.035Z</time>
      </trkpt>
      <trkpt lat="50.48765" lon="3.49649">
        <ele>15.78061</ele>
        <time>2020-08-18T08:34:27.254Z</time>
      </trkpt>
      <trkpt lat="50.48736" lon="3.49611">
        <ele>15.736143</ele>
        <time>2020-08-18T08:34:32.775Z</time>
      </trkpt>
      <trkpt lat="50.48731" lon="3.4961">
        <ele>15.729284</ele>
        <time>2020-08-18T08:34:33.602Z</time>
      </trkpt>
      <trkpt lat="50.48684" lon="3.49642">
        <ele>15.691109</ele>
        <time>2020-08-18T08:34:40.962Z</time>
      </trkpt>
      <trkpt lat="50.48628" lon="3.49654">
        <ele>15.809955</ele>
        <time>2020-08-18T08:34:49.288Z</time>
      </trkpt>
      <trkpt lat="50.48604" lon="3.49668">
        <ele>15.863728</ele>
        <time>2020-08-18T08:34:53.248Z</time>
      </trkpt>
      <trkpt lat="50.4857" lon="3.49704">
        <ele>15.949249</ele>
        <time>2020-08-18T08:35:00.138Z</time>
      </trkpt>
      <trkpt lat="50.48526" lon="3.49777">
        <ele>16.058891</ele>
        <time>2020-08-18T08:35:10.601Z</time>
      </trkpt>
      <trkpt lat="50.4851" lon="3.49792">
        <ele>16.06826</ele>
        <time>2020-08-18T08:35:13.628Z</time>
      </trkpt>
      <trkpt lat="50.48497" lon="3.49796">
        <ele>16.075197</ele>
        <time>2020-08-18T08:35:15.701Z</time>
      </trkpt>
      <trkpt lat="50.48475" lon="3.49799">
        <ele>16.086261</ele>
        <time>2020-08-18T08:35:19.206Z</time>
      </trkpt>
      <trkpt lat="50.4847" lon="3.498">
        <ele>16.088996</ele>
        <time>2020-08-18T08:35:20.020Z</time>
      </trkpt>
      <trkpt lat="50.48464" lon="3.49803">
        <ele>16.092325</ele>
        <time>2020-08-18T08:35:20.991Z</time>
      </trkpt>
      <trkpt lat="50.48456" lon="3.4981">
        <ele>16.097108</ele>
        <time>2020-08-18T08:35:22.431Z</time>
      </trkpt>
      <trkpt lat="50.48417" lon="3.49873">
        <ele>16.1255</ele>
        <time>2020-08-18T08:35:30.800Z</time>
      </trkpt>
      <trkpt lat="50.48317" lon="3.50036">
        <ele>15.551854</ele>
        <time>2020-08-18T08:35:49.950Z</time>
      </trkpt>
      <trkpt lat="50.48314" lon="3.50065">
        <ele>15.450322</ele>
        <time>2020-08-18T08:35:52.309Z</time>
      </trkpt>
      <trkpt lat="50.48334" lon="3.50155">
        <ele>15.131971</ele>
        <time>2020-08-18T08:36:00.123Z</time>
      </trkpt>
      <trkpt lat="50.48334" lon="3.50262">
        <ele>14.86476</ele>
        <time>2020-08-18T08:36:09.040Z</time>
      </trkpt>
      <trkpt lat="50.48233" lon="3.5047">
        <ele>14.456033</ele>
        <time>2020-08-18T08:36:32.324Z</time>
      </trkpt>
      <trkpt lat="50.48195" lon="3.50547">
        <ele>14.455317</ele>
        <time>2020-08-18T08:36:41.806Z</time>
      </trkpt>
      <trkpt lat="50.48156" lon="3.50601">
        <ele>14.454713</ele>
        <time>2020-08-18T08:36:50.015Z</time>
      </trkpt>
      <trkpt lat="50.48134" lon="3.50632">
        <ele>14.574624</ele>
        <time>2020-08-18T08:36:54.846Z</time>
      </trkpt>
      <trkpt lat="50.48087" lon="3.50718">
        <ele>14.891606</ele>
        <time>2020-08-18T08:37:06.707Z</time>
      </trkpt>
      <trkpt lat="50.48047" lon="3.50871">
        <ele>15.384496</ele>
        <time>2020-08-18T08:37:24.621Z</time>
      </trkpt>
      <trkpt lat="50.47986" lon="3.50967">
        <ele>15.861903</ele>
        <time>2020-08-18T08:37:39.161Z</time>
      </trkpt>
      <trkpt lat="50.47952" lon="3.51044">
        <ele>16.192958</ele>
        <time>2020-08-18T08:37:49.336Z</time>
      </trkpt>
      <trkpt lat="50.47858" lon="3.51324">
        <ele>17.364262</ele>
        <time>2020-08-18T08:38:24.028Z</time>
      </trkpt>
      <trkpt lat="50.47824" lon="3.51488">
        <ele>17.907018</ele>
        <time>2020-08-18T08:38:42.533Z</time>
      </trkpt>
      <trkpt lat="50.47785" lon="3.51628">
        <ele>18.379005</ele>
        <time>2020-08-18T08:38:58.938Z</time>
      </trkpt>
      <trkpt lat="50.47784" lon="3.51643">
        <ele>18.424302</ele>
        <time>2020-08-18T08:39:00.586Z</time>
      </trkpt>
      <trkpt lat="50.47784" lon="3.5165">
        <ele>18.445193</ele>
        <time>2020-08-18T08:39:01.321Z</time>
      </trkpt>
      <trkpt lat="50.47783" lon="3.51663">
        <ele>18.483525</ele>
        <time>2020-08-18T08:39:02.694Z</time>
      </trkpt>
      <trkpt lat="50.47782" lon="3.51698">
        <ele>18.589381</ele>
        <time>2020-08-18T08:39:06.477Z</time>
      </trkpt>
      <trkpt lat="50.47758" lon="3.52039">
        <ele>19.489239</ele>
        <time>2020-08-18T08:39:42.996Z</time>
      </trkpt>
      <trkpt lat="50.47755" lon="3.52073">
        <ele>19.568974</ele>
        <time>2020-08-18T08:39:46.382Z</time>
      </trkpt>
      <trkpt lat="50.4773" lon="3.52141">
        <ele>19.730611</ele>
        <time>2020-08-18T08:39:54.121Z</time>
      </trkpt>
      <trkpt lat="50.47718" lon="3.52168">
        <ele>19.776449</ele>
        <time>2020-08-18T08:39:57.352Z</time>
      </trkpt>
      <trkpt lat="50.47693" lon="3.52217">
        <ele>19.862499</ele>
        <time>2020-08-18T08:40:03.404Z</time>
      </trkpt>
      <trkpt lat="50.47654" lon="3.52277">
        <ele>19.981325</ele>
        <time>2020-08-18T08:40:11.925Z</time>
      </trkpt>
      <trkpt lat="50.47614" lon="3.52314">
        <ele>20.082075</ele>
        <time>2020-08-18T08:40:19.293Z</time>
      </trkpt>
      <trkpt lat="50.476" lon="3.52316">
        <ele>20.155954</ele>
        <time>2020-08-18T08:40:21.575Z</time>
      </trkpt>
      <trkpt lat="50.47556" lon="3.52303">
        <ele>20.424473</ele>
        <time>2020-08-18T08:40:29.047Z</time>
      </trkpt>
      <trkpt lat="50.47543" lon="3.52294">
        <ele>20.510777</ele>
        <time>2020-08-18T08:40:31.600Z</time>
      </trkpt>
      <trkpt lat="50.47526" lon="3.52307">
        <ele>20.629916</ele>
        <time>2020-08-18T08:40:36.107Z</time>
      </trkpt>
      <trkpt lat="50.47516" lon="3.52307">
        <ele>20.687128</ele>
        <time>2020-08-18T08:40:38.285Z</time>
      </trkpt>
      <trkpt lat="50.47446" lon="3.52307">
        <ele>21.116204</ele>
        <time>2020-08-18T08:40:54.550Z</time>
      </trkpt>
      <trkpt lat="50.47436" lon="3.52306">
        <ele>21.17588</ele>
        <time>2020-08-18T08:40:56.829Z</time>
      </trkpt>
      <trkpt lat="50.47427" lon="3.52309">
        <ele>21.221392</ele>
        <time>2020-08-18T08:40:59.004Z</time>
      </trkpt>
      <trkpt lat="50.47405" lon="3.52314">
        <ele>21.326318</ele>
        <time>2020-08-18T08:41:03.968Z</time>
      </trkpt>
      <trkpt lat="50.47397" lon="3.52316">
        <ele>21.366578</ele>
        <time>2020-08-18T08:41:06.006Z</time>
      </trkpt>
      <trkpt lat="50.47357" lon="3.52325">
        <ele>21.555327</ele>
        <time>2020-08-18T08:41:14.951Z</time>
      </trkpt>
      <trkpt lat="50.47349" lon="3.52328">
        <ele>21.593796</ele>
        <time>2020-08-18T08:41:16.743Z</time>
      </trkpt>
      <trkpt lat="50.47329" lon="3.52335">
        <ele>21.691189</ele>
        <time>2020-08-18T08:41:21.231Z</time>
      </trkpt>
      <trkpt lat="50.47321" lon="3.52338">
        <ele>21.73157</ele>
        <time>2020-08-18T08:41:23.192Z</time>
      </trkpt>
      <trkpt lat="50.47311" lon="3.52343">
        <ele>21.782014</ele>
        <time>2020-08-18T08:41:25.449Z</time>
      </trkpt>
      <trkpt lat="50.47294" lon="3.52361">
        <ele>21.875716</ele>
        <time>2020-08-18T08:41:29.822Z</time>
      </trkpt>
      <trkpt lat="50.47246" lon="3.52432">
        <ele>21.92356</ele>
        <time>2020-08-18T08:41:44.069Z</time>
      </trkpt>
      <trkpt lat="50.47173" lon="3.5254">
        <ele>21.586155</ele>
        <time>2020-08-18T08:42:03.619Z</time>
      </trkpt>
      <trkpt lat="50.47135" lon="3.52477">
        <ele>21.295416</ele>
        <time>2020-08-18T08:42:10.749Z</time>
      </trkpt>
      <trkpt lat="50.47084" lon="3.52412">
        <ele>20.3566</ele>
        <time>2020-08-18T08:42:18.196Z</time>
      </trkpt>
      <trkpt lat="50.47066" lon="3.52375">
        <ele>19.926028</ele>
        <time>2020-08-18T08:42:21.510Z</time>
      </trkpt>
      <trkpt lat="50.47043" lon="3.5234">
        <ele>19.466831</ele>
        <time>2020-08-18T08:42:25.078Z</time>
      </trkpt>
      <trkpt lat="50.47003" lon="3.52294">
        <ele>18.7845</ele>
        <time>2020-08-18T08:42:30.835Z</time>
      </trkpt>
      <trkpt lat="50.46989" lon="3.52278">
        <ele>18.656874</ele>
        <time>2020-08-18T08:42:32.853Z</time>
      </trkpt>
      <trkpt lat="50.46985" lon="3.52273">
        <ele>18.621902</ele>
        <time>2020-08-18T08:42:33.431Z</time>
      </trkpt>
      <trkpt lat="50.46961" lon="3.52246">
        <ele>18.403624</ele>
        <time>2020-08-18T08:42:36.967Z</time>
      </trkpt>
      <trkpt lat="50.46903" lon="3.52179">
        <ele>17.867243</ele>
        <time>2020-08-18T08:42:46.075Z</time>
      </trkpt>
      <trkpt lat="50.46859" lon="3.52136">
        <ele>17.496471</ele>
        <time>2020-08-18T08:42:53.502Z</time>
      </trkpt>
      <trkpt lat="50.46795" lon="3.52081">
        <ele>17.579533</ele>
        <time>2020-08-18T08:43:05.312Z</time>
      </trkpt>
      <trkpt lat="50.46702" lon="3.52009">
        <ele>17.698098</ele>
        <time>2020-08-18T08:43:20.937Z</time>
      </trkpt>
      <trkpt lat="50.46599" lon="3.5194">
        <ele>17.883024</ele>
        <time>2020-08-18T08:43:38.139Z</time>
      </trkpt>
      <trkpt lat="50.46568" lon="3.51907">
        <ele>17.945146</ele>
        <time>2020-08-18T08:43:44.026Z</time>
      </trkpt>
      <trkpt lat="50.46439" lon="3.5173">
        <ele>18.425389</ele>
        <time>2020-08-18T08:44:11.457Z</time>
      </trkpt>
      <trkpt lat="50.46372" lon="3.51656">
        <ele>18.679261</ele>
        <time>2020-08-18T08:44:24.673Z</time>
      </trkpt>
      <trkpt lat="50.46353" lon="3.51643">
        <ele>18.742646</ele>
        <time>2020-08-18T08:44:28.072Z</time>
      </trkpt>
      <trkpt lat="50.46343" lon="3.51672">
        <ele>18.808323</ele>
        <time>2020-08-18T08:44:31.473Z</time>
      </trkpt>
      <trkpt lat="50.46277" lon="3.51833">
        <ele>19.151603</ele>
        <time>2020-08-18T08:44:51.177Z</time>
      </trkpt>
      <trkpt lat="50.46275" lon="3.5184">
        <ele>19.160082</ele>
        <time>2020-08-18T08:44:51.958Z</time>
      </trkpt>
      <trkpt lat="50.46227" lon="3.52002">
        <ele>19.369252</ele>
        <time>2020-08-18T08:45:09.857Z</time>
      </trkpt>
      <trkpt lat="50.46192" lon="3.52082">
        <ele>19.360704</ele>
        <time>2020-08-18T08:45:18.985Z</time>
      </trkpt>
      <trkpt lat="50.46142" lon="3.52179">
        <ele>19.130977</ele>
        <time>2020-08-18T08:45:29.906Z</time>
      </trkpt>
      <trkpt lat="50.46125" lon="3.52213">
        <ele>19.051901</ele>
        <time>2020-08-18T08:45:33.545Z</time>
      </trkpt>
      <trkpt lat="50.46103" lon="3.52267">
        <ele>18.932271</ele>
        <time>2020-08-18T08:45:39.192Z</time>
      </trkpt>
      <trkpt lat="50.46093" lon="3.52304">
        <ele>18.862575</ele>
        <time>2020-08-18T08:45:42.578Z</time>
      </trkpt>
      <trkpt lat="50.4609" lon="3.52315">
        <ele>18.841977</ele>
        <time>2020-08-18T08:45:43.641Z</time>
      </trkpt>
      <trkpt lat="50.46044" lon="3.52616">
        <ele>18.565926</ele>
        <time>2020-08-18T08:46:11.166Z</time>
      </trkpt>
      <trkpt lat="50.46036" lon="3.52652">
        <ele>18.636969</ele>
        <time>2020-08-18T08:46:14.998Z</time>
      </trkpt>
      <trkpt lat="50.46006" lon="3.52747">
        <ele>18.841191</ele>
        <time>2020-08-18T08:46:26.344Z</time>
      </trkpt>
      <trkpt lat="50.45992" lon="3.52777">
        <ele>18.910051</ele>
        <time>2020-08-18T08:46:30.258Z</time>
      </trkpt>
      <trkpt lat="50.45942" lon="3.52731">
        <ele>19.319123</ele>
        <time>2020-08-18T08:46:40.528Z</time>
      </trkpt>
      <trkpt lat="50.45747" lon="3.52559">
        <ele>21.03094</ele>
        <time>2020-08-18T08:47:22.816Z</time>
      </trkpt>
      <trkpt lat="50.45717" lon="3.52524">
        <ele>21.199022</ele>
        <time>2020-08-18T08:47:28.867Z</time>
      </trkpt>
      <trkpt lat="50.45677" lon="3.52459">
        <ele>21.458734</ele>
        <time>2020-08-18T08:47:37.494Z</time>
      </trkpt>
      <trkpt lat="50.45668" lon="3.52446">
        <ele>21.422214</ele>
        <time>2020-08-18T08:47:39.150Z</time>
      </trkpt>
      <trkpt lat="50.45655" lon="3.52443">
        <ele>21.341393</ele>
        <time>2020-08-18T08:47:41.007Z</time>
      </trkpt>
      <trkpt lat="50.45655" lon="3.52478">
        <ele>21.203409</ele>
        <time>2020-08-18T08:47:43.912Z</time>
      </trkpt>
      <trkpt lat="50.45654" lon="3.52492">
        <ele>21.146424</ele>
        <time>2020-08-18T08:47:45.130Z</time>
      </trkpt>
      <trkpt lat="50.45653" lon="3.52538">
        <ele>20.963197</ele>
        <time>2020-08-18T08:47:48.871Z</time>
      </trkpt>
      <trkpt lat="50.45644" lon="3.52847">
        <ele>20.079939</ele>
        <time>2020-08-18T08:48:13.898Z</time>
      </trkpt>
      <trkpt lat="50.45642" lon="3.52919">
        <ele>19.952774</ele>
        <time>2020-08-18T08:48:20.806Z</time>
      </trkpt>
      <trkpt lat="50.45629" lon="3.52918">
        <ele>19.918082</ele>
        <time>2020-08-18T08:48:24.545Z</time>
      </trkpt>
      <trkpt lat="50.45642" lon="3.52919">
        <ele>19.88339</ele>
        <time>2020-08-18T08:48:26.462Z</time>
      </trkpt>
      <trkpt lat="50.45632" lon="3.53265">
        <ele>20.856458</ele>
        <time>2020-08-18T08:49:04.039Z</time>
      </trkpt>
      <trkpt lat="50.45625" lon="3.53455">
        <ele>21.396651</ele>
        <time>2020-08-18T08:49:24.271Z</time>
      </trkpt>
      <trkpt lat="50.45621" lon="3.53492">
        <ele>21.502791</ele>
        <time>2020-08-18T08:49:28.108Z</time>
      </trkpt>
      <trkpt lat="50.4562" lon="3.53507">
        <ele>21.538378</ele>
        <time>2020-08-18T08:49:29.619Z</time>
      </trkpt>
      <trkpt lat="50.4562" lon="3.5351">
        <ele>21.545248</ele>
        <time>2020-08-18T08:49:30.083Z</time>
      </trkpt>
      <trkpt lat="50.45607" lon="3.53571">
        <ele>21.680859</ele>
        <time>2020-08-18T08:49:36.710Z</time>
      </trkpt>
      <trkpt lat="50.45595" lon="3.53629">
        <ele>21.811603</ele>
        <time>2020-08-18T08:49:43.173Z</time>
      </trkpt>
      <trkpt lat="50.45542" lon="3.53874">
        <ele>21.95928</ele>
        <time>2020-08-18T08:50:09.341Z</time>
      </trkpt>
      <trkpt lat="50.45531" lon="3.5392">
        <ele>21.889963</ele>
        <time>2020-08-18T08:50:13.801Z</time>
      </trkpt>
      <trkpt lat="50.45518" lon="3.53952">
        <ele>21.835555</ele>
        <time>2020-08-18T08:50:17.208Z</time>
      </trkpt>
      <trkpt lat="50.45516" lon="3.53956">
        <ele>21.828873</ele>
        <time>2020-08-18T08:50:17.629Z</time>
      </trkpt>
      <trkpt lat="50.45413" lon="3.54163">
        <ele>20.75509</ele>
        <time>2020-08-18T08:50:38.456Z</time>
      </trkpt>
      <trkpt lat="50.45402" lon="3.54212">
        <ele>20.484903</ele>
        <time>2020-08-18T08:50:42.444Z</time>
      </trkpt>
      <trkpt lat="50.45382" lon="3.54342">
        <ele>20.36298</ele>
        <time>2020-08-18T08:50:53.714Z</time>
      </trkpt>
      <trkpt lat="50.45376" lon="3.5438">
        <ele>20.412337</ele>
        <time>2020-08-18T08:50:57.574Z</time>
      </trkpt>
      <trkpt lat="50.45363" lon="3.5443">
        <ele>20.480669</ele>
        <time>2020-08-18T08:51:03.179Z</time>
      </trkpt>
      <trkpt lat="50.45352" lon="3.54445">
        <ele>20.50957</ele>
        <time>2020-08-18T08:51:05.581Z</time>
      </trkpt>
      <trkpt lat="50.45349" lon="3.54451">
        <ele>20.519528</ele>
        <time>2020-08-18T08:51:06.465Z</time>
      </trkpt>
      <trkpt lat="50.4527" lon="3.54577">
        <ele>21.143476</ele>
        <time>2020-08-18T08:51:27.887Z</time>
      </trkpt>
      <trkpt lat="50.45198" lon="3.5469">
        <ele>21.936926</ele>
        <time>2020-08-18T08:51:46.484Z</time>
      </trkpt>
      <trkpt lat="50.45161" lon="3.54745">
        <ele>21.887955</ele>
        <time>2020-08-18T08:51:54.203Z</time>
      </trkpt>
      <trkpt lat="50.45131" lon="3.54811">
        <ele>21.723302</ele>
        <time>2020-08-18T08:52:01.300Z</time>
      </trkpt>
      <trkpt lat="50.45077" lon="3.54935">
        <ele>21.391209</ele>
        <time>2020-08-18T08:52:13.657Z</time>
      </trkpt>
      <trkpt lat="50.44858" lon="3.55448">
        <ele>19.183875</ele>
        <time>2020-08-18T08:53:04.478Z</time>
      </trkpt>
      <trkpt lat="50.44812" lon="3.55538">
        <ele>19.281078</ele>
        <time>2020-08-18T08:53:15.814Z</time>
      </trkpt>
      <trkpt lat="50.44802" lon="3.55553">
        <ele>19.299101</ele>
        <time>2020-08-18T08:53:18.308Z</time>
      </trkpt>
      <trkpt lat="50.44797" lon="3.55552">
        <ele>19.305588</ele>
        <time>2020-08-18T08:53:19.349Z</time>
      </trkpt>
      <trkpt lat="50.44792" lon="3.55554">
        <ele>19.312167</ele>
        <time>2020-08-18T08:53:20.405Z</time>
      </trkpt>
      <trkpt lat="50.44788" lon="3.55556">
        <ele>19.318594</ele>
        <time>2020-08-18T08:53:21.417Z</time>
      </trkpt>
      <trkpt lat="50.44783" lon="3.55562">
        <ele>19.326131</ele>
        <time>2020-08-18T08:53:22.543Z</time>
      </trkpt>
      <trkpt lat="50.44777" lon="3.55577">
        <ele>19.340898</ele>
        <time>2020-08-18T08:53:25.252Z</time>
      </trkpt>
      <trkpt lat="50.44777" lon="3.55586">
        <ele>19.348313</ele>
        <time>2020-08-18T08:53:26.570Z</time>
      </trkpt>
      <trkpt lat="50.44777" lon="3.55593">
        <ele>19.354908</ele>
        <time>2020-08-18T08:53:27.659Z</time>
      </trkpt>
      <trkpt lat="50.44779" lon="3.55601">
        <ele>19.361483</ele>
        <time>2020-08-18T08:53:28.761Z</time>
      </trkpt>
      <trkpt lat="50.44781" lon="3.55607">
        <ele>19.374929</ele>
        <time>2020-08-18T08:53:29.805Z</time>
      </trkpt>
      <trkpt lat="50.4477" lon="3.55653">
        <ele>19.557832</ele>
        <time>2020-08-18T08:53:35.605Z</time>
      </trkpt>
      <trkpt lat="50.44738" lon="3.55727">
        <ele>19.886294</ele>
        <time>2020-08-18T08:53:45.942Z</time>
      </trkpt>
      <trkpt lat="50.44734" lon="3.55735">
        <ele>19.923785</ele>
        <time>2020-08-18T08:53:47.118Z</time>
      </trkpt>
      <trkpt lat="50.44708" lon="3.55796">
        <ele>20.195455</ele>
        <time>2020-08-18T08:53:54.843Z</time>
      </trkpt>
      <trkpt lat="50.44696" lon="3.55823">
        <ele>20.316846</ele>
        <time>2020-08-18T08:53:58.333Z</time>
      </trkpt>
      <trkpt lat="50.4468" lon="3.55863">
        <ele>20.41304</ele>
        <time>2020-08-18T08:54:03.340Z</time>
      </trkpt>
      <trkpt lat="50.44669" lon="3.55887">
        <ele>20.416787</ele>
        <time>2020-08-18T08:54:06.517Z</time>
      </trkpt>
      <trkpt lat="50.44664" lon="3.55895">
        <ele>20.418236</ele>
        <time>2020-08-18T08:54:07.670Z</time>
      </trkpt>
      <trkpt lat="50.44481" lon="3.56212">
        <ele>20.365388</ele>
        <time>2020-08-18T08:54:46.844Z</time>
      </trkpt>
      <trkpt lat="50.44469" lon="3.56233">
        <ele>20.354282</ele>
        <time>2020-08-18T08:54:49.561Z</time>
      </trkpt>
      <trkpt lat="50.44437" lon="3.56289">
        <ele>20.355866</ele>
        <time>2020-08-18T08:54:56.721Z</time>
      </trkpt>
      <trkpt lat="50.44407" lon="3.5634">
        <ele>20.404502</ele>
        <time>2020-08-18T08:55:03.750Z</time>
      </trkpt>
      <trkpt lat="50.44323" lon="3.56462">
        <ele>20.527312</ele>
        <time>2020-08-18T08:55:21.394Z</time>
      </trkpt>
      <trkpt lat="50.4426" lon="3.56536">
        <ele>20.274695</ele>
        <time>2020-08-18T08:55:32.544Z</time>
      </trkpt>
      <trkpt lat="50.44186" lon="3.56622">
        <ele>19.964319</ele>
        <time>2020-08-18T08:55:44.897Z</time>
      </trkpt>
      <trkpt lat="50.44104" lon="3.5672">
        <ele>19.436706</ele>
        <time>2020-08-18T08:55:58.310Z</time>
      </trkpt>
      <trkpt lat="50.44062" lon="3.56771">
        <ele>19.153084</ele>
        <time>2020-08-18T08:56:05.277Z</time>
      </trkpt>
      <trkpt lat="50.44049" lon="3.56796">
        <ele>19.043043</ele>
        <time>2020-08-18T08:56:07.979Z</time>
      </trkpt>
      <trkpt lat="50.4395" lon="3.56981">
        <ele>18.65141</ele>
        <time>2020-08-18T08:56:28.782Z</time>
      </trkpt>
      <trkpt lat="50.43912" lon="3.57055">
        <ele>18.677673</ele>
        <time>2020-08-18T08:56:38.159Z</time>
      </trkpt>
      <trkpt lat="50.43877" lon="3.57123">
        <ele>19.019776</ele>
        <time>2020-08-18T08:56:47.668Z</time>
      </trkpt>
      <trkpt lat="50.43871" lon="3.57134">
        <ele>19.074366</ele>
        <time>2020-08-18T08:56:49.296Z</time>
      </trkpt>
      <trkpt lat="50.43767" lon="3.57306">
        <ele>20.148251</ele>
        <time>2020-08-18T08:57:16.644Z</time>
      </trkpt>
      <trkpt lat="50.43732" lon="3.57364">
        <ele>20.592888</ele>
        <time>2020-08-18T08:57:25.977Z</time>
      </trkpt>
      <trkpt lat="50.43723" lon="3.57379">
        <ele>20.71005</ele>
        <time>2020-08-18T08:57:28.486Z</time>
      </trkpt>
      <trkpt lat="50.43698" lon="3.57422">
        <ele>21.03802</ele>
        <time>2020-08-18T08:57:35.437Z</time>
      </trkpt>
      <trkpt lat="50.43671" lon="3.57466">
        <ele>21.403579</ele>
        <time>2020-08-18T08:57:42.653Z</time>
      </trkpt>
      <trkpt lat="50.43661" lon="3.57483">
        <ele>21.554783</ele>
        <time>2020-08-18T08:57:45.454Z</time>
      </trkpt>
      <trkpt lat="50.43656" lon="3.57492">
        <ele>21.628277</ele>
        <time>2020-08-18T08:57:46.795Z</time>
      </trkpt>
      <trkpt lat="50.43617" lon="3.57559">
        <ele>22.218504</ele>
        <time>2020-08-18T08:57:57.861Z</time>
      </trkpt>
      <trkpt lat="50.43596" lon="3.57594">
        <ele>22.522854</ele>
        <time>2020-08-18T08:58:03.609Z</time>
      </trkpt>
      <trkpt lat="50.43573" lon="3.57634">
        <ele>22.873792</ele>
        <time>2020-08-18T08:58:10.327Z</time>
      </trkpt>
      <trkpt lat="50.43567" lon="3.57645">
        <ele>22.973532</ele>
        <time>2020-08-18T08:58:12.318Z</time>
      </trkpt>
      <trkpt lat="50.43558" lon="3.5766">
        <ele>23.084592</ele>
        <time>2020-08-18T08:58:14.705Z</time>
      </trkpt>
      <trkpt lat="50.43547" lon="3.57679">
        <ele>23.165701</ele>
        <time>2020-08-18T08:58:17.858Z</time>
      </trkpt>
      <trkpt lat="50.43521" lon="3.57723">
        <ele>23.353015</ele>
        <time>2020-08-18T08:58:24.698Z</time>
      </trkpt>
      <trkpt lat="50.43511" lon="3.57749">
        <ele>23.44808</ele>
        <time>2020-08-18T08:58:27.875Z</time>
      </trkpt>
      <trkpt lat="50.43508" lon="3.57757">
        <ele>23.476521</ele>
        <time>2020-08-18T08:58:28.786Z</time>
      </trkpt>
      <trkpt lat="50.4348" lon="3.57837">
        <ele>23.760532</ele>
        <time>2020-08-18T08:58:38.267Z</time>
      </trkpt>
      <trkpt lat="50.43428" lon="3.57966">
        <ele>23.911273</ele>
        <time>2020-08-18T08:58:53.243Z</time>
      </trkpt>
      <trkpt lat="50.43391" lon="3.57895">
        <ele>23.873094</ele>
        <time>2020-08-18T08:59:04.324Z</time>
      </trkpt>
      <trkpt lat="50.4336" lon="3.57832">
        <ele>23.839833</ele>
        <time>2020-08-18T08:59:14.275Z</time>
      </trkpt>
      <trkpt lat="50.43324" lon="3.57875">
        <ele>23.902471</ele>
        <time>2020-08-18T08:59:23.517Z</time>
      </trkpt>
      <trkpt lat="50.43315" lon="3.5786">
        <ele>23.929351</ele>
        <time>2020-08-18T08:59:25.621Z</time>
      </trkpt>
      <trkpt lat="50.43308" lon="3.57846">
        <ele>23.953528</ele>
        <time>2020-08-18T08:59:27.473Z</time>
      </trkpt>
      <trkpt lat="50.43296" lon="3.57819">
        <ele>23.997728</ele>
        <time>2020-08-18T08:59:30.675Z</time>
      </trkpt>
      <trkpt lat="50.43266" lon="3.57753">
        <ele>24.10474</ele>
        <time>2020-08-18T08:59:38.866Z</time>
      </trkpt>
      <trkpt lat="50.43262" lon="3.57741">
        <ele>24.123132</ele>
        <time>2020-08-18T08:59:40.202Z</time>
      </trkpt>
      <trkpt lat="50.43259" lon="3.57735">
        <ele>24.132776</ele>
        <time>2020-08-18T08:59:40.864Z</time>
      </trkpt>
      <trkpt lat="50.43243" lon="3.57695">
        <ele>24.195787</ele>
        <time>2020-08-18T08:59:45.701Z</time>
      </trkpt>
      <trkpt lat="50.43238" lon="3.57685">
        <ele>24.209622</ele>
        <time>2020-08-18T08:59:47.018Z</time>
      </trkpt>
      <trkpt lat="50.43234" lon="3.57674">
        <ele>24.217211</ele>
        <time>2020-08-18T08:59:48.465Z</time>
      </trkpt>
      <trkpt lat="50.43218" lon="3.5763">
        <ele>24.248381</ele>
        <time>2020-08-18T08:59:54.236Z</time>
      </trkpt>
      <trkpt lat="50.43212" lon="3.57616">
        <ele>24.258069</ele>
        <time>2020-08-18T08:59:55.965Z</time>
      </trkpt>
      <trkpt lat="50.4323" lon="3.57598">
        <ele>24.278427</ele>
        <time>2020-08-18T09:00:00.629Z</time>
      </trkpt>
      <trkpt lat="50.4325" lon="3.57576">
        <ele>24.301682</ele>
        <time>2020-08-18T09:00:05.722Z</time>
      </trkpt>
      <trkpt lat="50.43302" lon="3.57502">
        <ele>24.368726</ele>
        <time>2020-08-18T09:00:19.382Z</time>
      </trkpt>
      <trkpt lat="50.43304" lon="3.575">
        <ele>24.370795</ele>
        <time>2020-08-18T09:00:19.762Z</time>
      </trkpt>
      <trkpt lat="50.43313" lon="3.57482">
        <ele>24.354653</ele>
        <time>2020-08-18T09:00:22.518Z</time>
      </trkpt>
      <trkpt lat="50.43334" lon="3.57442">
        <ele>24.218391</ele>
        <time>2020-08-18T09:00:28.909Z</time>
      </trkpt>
      <trkpt lat="50.43346" lon="3.57417">
        <ele>24.136013</ele>
        <time>2020-08-18T09:00:32.658Z</time>
      </trkpt>
      <trkpt lat="50.43364" lon="3.5738">
        <ele>24.012868</ele>
        <time>2020-08-18T09:00:38.107Z</time>
      </trkpt>
      <trkpt lat="50.4338" lon="3.57359">
        <ele>23.926299</ele>
        <time>2020-08-18T09:00:41.963Z</time>
      </trkpt>
      <trkpt lat="50.43387" lon="3.57346">
        <ele>23.881806</ele>
        <time>2020-08-18T09:00:43.877Z</time>
      </trkpt>
      <trkpt lat="50.43395" lon="3.57315">
        <ele>23.791384</ele>
        <time>2020-08-18T09:00:47.885Z</time>
      </trkpt>
      <trkpt lat="50.43369" lon="3.57278">
        <ele>23.643457</ele>
        <time>2020-08-18T09:00:54.393Z</time>
      </trkpt>
      <trkpt lat="50.43295" lon="3.57116">
        <ele>23.490493</ele>
        <time>2020-08-18T09:01:19.957Z</time>
      </trkpt>
      <trkpt lat="50.43272" lon="3.57047">
        <ele>23.433431</ele>
        <time>2020-08-18T09:01:30.164Z</time>
      </trkpt>
      <trkpt lat="50.4327" lon="3.57">
        <ele>23.279077</ele>
        <time>2020-08-18T09:01:35.914Z</time>
      </trkpt>
      <trkpt lat="50.43271" lon="3.56969">
        <ele>23.152225</ele>
        <time>2020-08-18T09:01:39.846Z</time>
      </trkpt>
      <trkpt lat="50.43277" lon="3.56951">
        <ele>23.07215</ele>
        <time>2020-08-18T09:01:42.219Z</time>
      </trkpt>
      <trkpt lat="50.43282" lon="3.56926">
        <ele>22.97039</ele>
        <time>2020-08-18T09:01:45.308Z</time>
      </trkpt>
      <trkpt lat="50.43292" lon="3.56872">
        <ele>22.747787</ele>
        <time>2020-08-18T09:01:51.751Z</time>
      </trkpt>
      <trkpt lat="50.43298" lon="3.56838">
        <ele>22.607518</ele>
        <time>2020-08-18T09:01:55.649Z</time>
      </trkpt>
      <trkpt lat="50.43296" lon="3.56745">
        <ele>22.228803</ele>
        <time>2020-08-18T09:02:06.074Z</time>
      </trkpt>
      <trkpt lat="50.43277" lon="3.56591">
        <ele>21.533916</ele>
        <time>2020-08-18T09:02:23.490Z</time>
      </trkpt>
      <trkpt lat="50.43245" lon="3.56322">
        <ele>20.947686</ele>
        <time>2020-08-18T09:02:57.313Z</time>
      </trkpt>
      <trkpt lat="50.43244" lon="3.56313">
        <ele>20.941869</ele>
        <time>2020-08-18T09:02:58.604Z</time>
      </trkpt>
      <trkpt lat="50.43234" lon="3.56231">
        <ele>20.890249</ele>
        <time>2020-08-18T09:03:09.524Z</time>
      </trkpt>
      <trkpt lat="50.43218" lon="3.56145">
        <ele>20.897363</ele>
        <time>2020-08-18T09:03:21.151Z</time>
      </trkpt>
      <trkpt lat="50.43191" lon="3.56064">
        <ele>20.929185</ele>
        <time>2020-08-18T09:03:32.986Z</time>
      </trkpt>
      <trkpt lat="50.4319" lon="3.56047">
        <ele>20.935056</ele>
        <time>2020-08-18T09:03:35.157Z</time>
      </trkpt>
      <trkpt lat="50.43185" lon="3.56043">
        <ele>20.938094</ele>
        <time>2020-08-18T09:03:36.224Z</time>
      </trkpt>
      <trkpt lat="50.43075" lon="3.55818">
        <ele>21.382158</ele>
        <time>2020-08-18T09:04:13.728Z</time>
      </trkpt>
      <trkpt lat="50.43044" lon="3.5558">
        <ele>22.441715</ele>
        <time>2020-08-18T09:04:49.710Z</time>
      </trkpt>
      <trkpt lat="50.43031" lon="3.55529">
        <ele>22.759229</ele>
        <time>2020-08-18T09:04:58.278Z</time>
      </trkpt>
      <trkpt lat="50.43007" lon="3.55445">
        <ele>23.300914</ele>
        <time>2020-08-18T09:05:12.890Z</time>
      </trkpt>
      <trkpt lat="50.42936" lon="3.55327">
        <ele>24.269589</ele>
        <time>2020-08-18T09:05:38.215Z</time>
      </trkpt>
      <trkpt lat="50.42846" lon="3.55179">
        <ele>25.488731</ele>
        <time>2020-08-18T09:06:08.381Z</time>
      </trkpt>
      <trkpt lat="50.42846" lon="3.55179">
        <ele>25.488731</ele>
        <time>2020-08-18T09:06:08.467Z</time>
      </trkpt>
      <trkpt lat="50.42875" lon="3.55121">
        <ele>25.924054</ele>
        <time>2020-08-18T09:06:19.210Z</time>
      </trkpt>
      <trkpt lat="50.42886" lon="3.55093">
        <ele>26.117368</ele>
        <time>2020-08-18T09:06:24.060Z</time>
      </trkpt>
      <trkpt lat="50.42899" lon="3.55073">
        <ele>26.287966</ele>
        <time>2020-08-18T09:06:28.487Z</time>
      </trkpt>
      <trkpt lat="50.42956" lon="3.54992">
        <ele>27.546226</ele>
        <time>2020-08-18T09:06:47.617Z</time>
      </trkpt>
      <trkpt lat="50.43046" lon="3.54851">
        <ele>30.370483</ele>
        <time>2020-08-18T09:07:26.610Z</time>
      </trkpt>
      <trkpt lat="50.4306" lon="3.54812">
        <ele>30.926575</ele>
        <time>2020-08-18T09:07:35.631Z</time>
      </trkpt>
      <trkpt lat="50.43117" lon="3.54696">
        <ele>32.648795</ele>
        <time>2020-08-18T09:08:04.324Z</time>
      </trkpt>
      <trkpt lat="50.43356" lon="3.54183">
        <ele>36.266466</ele>
        <time>2020-08-18T09:09:36.700Z</time>
      </trkpt>
      <trkpt lat="50.4343" lon="3.5402">
        <ele>37.762776</ele>
        <time>2020-08-18T09:10:08.400Z</time>
      </trkpt>
      <trkpt lat="50.4363" lon="3.53595">
        <ele>42.389372</ele>
        <time>2020-08-18T09:11:36.565Z</time>
      </trkpt>
      <trkpt lat="50.43672" lon="3.53506">
        <ele>43.247247</ele>
        <time>2020-08-18T09:11:54.055Z</time>
      </trkpt>
      <trkpt lat="50.44147" lon="3.52494">
        <ele>49.371462</ele>
        <time>2020-08-18T09:15:02.278Z</time>
      </trkpt>
      <trkpt lat="50.44141" lon="3.52456">
        <ele>49.339605</ele>
        <time>2020-08-18T09:15:07.714Z</time>
      </trkpt>
      <trkpt lat="50.44124" lon="3.52302">
        <ele>49.213812</ele>
        <time>2020-08-18T09:15:26.388Z</time>
      </trkpt>
      <trkpt lat="50.44105" lon="3.52127">
        <ele>47.216705</ele>
        <time>2020-08-18T09:15:44.891Z</time>
      </trkpt>
      <trkpt lat="50.44116" lon="3.5209">
        <ele>46.747138</ele>
        <time>2020-08-18T09:15:48.811Z</time>
      </trkpt>
      <trkpt lat="50.44192" lon="3.51993">
        <ele>45.03789</ele>
        <time>2020-08-18T09:16:03.805Z</time>
      </trkpt>
      <trkpt lat="50.44202" lon="3.51953">
        <ele>44.569057</ele>
        <time>2020-08-18T09:16:08.305Z</time>
      </trkpt>
      <trkpt lat="50.44201" lon="3.5195">
        <ele>44.537415</ele>
        <time>2020-08-18T09:16:08.524Z</time>
      </trkpt>
      <trkpt lat="50.442" lon="3.51942">
        <ele>44.452216</ele>
        <time>2020-08-18T09:16:09.354Z</time>
      </trkpt>
      <trkpt lat="50.44159" lon="3.51838">
        <ele>43.123113</ele>
        <time>2020-08-18T09:16:22.330Z</time>
      </trkpt>
      <trkpt lat="50.4393" lon="3.51255">
        <ele>40.046568</ele>
        <time>2020-08-18T09:17:44.133Z</time>
      </trkpt>
      <trkpt lat="50.43688" lon="3.50634">
        <ele>31.582463</ele>
        <time>2020-08-18T09:18:57.398Z</time>
      </trkpt>
      <trkpt lat="50.43687" lon="3.50623">
        <ele>31.440489</ele>
        <time>2020-08-18T09:18:58.420Z</time>
      </trkpt>
      <trkpt lat="50.43703" lon="3.50602">
        <ele>31.120209</ele>
        <time>2020-08-18T09:19:01.667Z</time>
      </trkpt>
      <trkpt lat="50.43794" lon="3.50441">
        <ele>29.221159</ele>
        <time>2020-08-18T09:19:23.907Z</time>
      </trkpt>
      <trkpt lat="50.43803" lon="3.50429">
        <ele>29.063441</ele>
        <time>2020-08-18T09:19:25.923Z</time>
      </trkpt>
      <trkpt lat="50.43983" lon="3.49526">
        <ele>31.041082</ele>
        <time>2020-08-18T09:21:38.730Z</time>
      </trkpt>
      <trkpt lat="50.44" lon="3.49438">
        <ele>31.2273</ele>
        <time>2020-08-18T09:21:51.491Z</time>
      </trkpt>
      <trkpt lat="50.44009" lon="3.49387">
        <ele>31.333894</ele>
        <time>2020-08-18T09:21:58.790Z</time>
      </trkpt>
      <trkpt lat="50.44064" lon="3.49097">
        <ele>31.146228</ele>
        <time>2020-08-18T09:22:37.976Z</time>
      </trkpt>
      <trkpt lat="50.44139" lon="3.48739">
        <ele>28.941078</ele>
        <time>2020-08-18T09:23:19.211Z</time>
      </trkpt>
      <trkpt lat="50.44284" lon="3.48004">
        <ele>24.14673</ele>
        <time>2020-08-18T09:24:44.854Z</time>
      </trkpt>
      <trkpt lat="50.44287" lon="3.47989">
        <ele>24.050413</ele>
        <time>2020-08-18T09:24:46.633Z</time>
      </trkpt>
      <trkpt lat="50.44293" lon="3.47958">
        <ele>23.929532</ele>
        <time>2020-08-18T09:24:50.279Z</time>
      </trkpt>
      <trkpt lat="50.44287" lon="3.47965">
        <ele>23.897185</ele>
        <time>2020-08-18T09:24:51.096Z</time>
      </trkpt>
      <trkpt lat="50.44124" lon="3.4799">
        <ele>23.23437</ele>
        <time>2020-08-18T09:25:12.942Z</time>
      </trkpt>
      <trkpt lat="50.43654" lon="3.48056">
        <ele>26.570651</ele>
        <time>2020-08-18T09:26:38.655Z</time>
      </trkpt>
      <trkpt lat="50.43615" lon="3.48061">
        <ele>26.788728</ele>
        <time>2020-08-18T09:26:44.816Z</time>
      </trkpt>
      <trkpt lat="50.43301" lon="3.48107">
        <ele>27.041847</ele>
        <time>2020-08-18T09:27:30.689Z</time>
      </trkpt>
      <trkpt lat="50.43281" lon="3.48105">
        <ele>27.083481</ele>
        <time>2020-08-18T09:27:33.880Z</time>
      </trkpt>
      <trkpt lat="50.43271" lon="3.481">
        <ele>27.105775</ele>
        <time>2020-08-18T09:27:35.715Z</time>
      </trkpt>
      <trkpt lat="50.43267" lon="3.48097">
        <ele>27.116342</ele>
        <time>2020-08-18T09:27:36.448Z</time>
      </trkpt>
      <trkpt lat="50.43262" lon="3.48091">
        <ele>27.129492</ele>
        <time>2020-08-18T09:27:37.554Z</time>
      </trkpt>
      <trkpt lat="50.43255" lon="3.4808">
        <ele>27.148593</ele>
        <time>2020-08-18T09:27:39.012Z</time>
      </trkpt>
      <trkpt lat="50.43251" lon="3.48065">
        <ele>27.170661</ele>
        <time>2020-08-18T09:27:40.995Z</time>
      </trkpt>
      <trkpt lat="50.4324" lon="3.47903">
        <ele>28.427202</ele>
        <time>2020-08-18T09:28:00.824Z</time>
      </trkpt>
      <trkpt lat="50.43218" lon="3.47803">
        <ele>29.283453</ele>
        <time>2020-08-18T09:28:15.697Z</time>
      </trkpt>
      <trkpt lat="50.43184" lon="3.47597">
        <ele>30.601111</ele>
        <time>2020-08-18T09:28:43.756Z</time>
      </trkpt>
      <trkpt lat="50.43166" lon="3.47326">
        <ele>30.62915</ele>
        <time>2020-08-18T09:29:08.435Z</time>
      </trkpt>
      <trkpt lat="50.43163" lon="3.47279">
        <ele>30.489193</ele>
        <time>2020-08-18T09:29:12.105Z</time>
      </trkpt>
      <trkpt lat="50.43136" lon="3.47204">
        <ele>30.192273</ele>
        <time>2020-08-18T09:29:18.927Z</time>
      </trkpt>
      <trkpt lat="50.43126" lon="3.47189">
        <ele>30.097828</ele>
        <time>2020-08-18T09:29:20.495Z</time>
      </trkpt>
      <trkpt lat="50.43178" lon="3.47063">
        <ele>29.437833</ele>
        <time>2020-08-18T09:29:32.603Z</time>
      </trkpt>
      <trkpt lat="50.43286" lon="3.46805">
        <ele>29.058188</ele>
        <time>2020-08-18T09:29:59.937Z</time>
      </trkpt>
      <trkpt lat="50.4332" lon="3.46722">
        <ele>29.41828</ele>
        <time>2020-08-18T09:30:10.912Z</time>
      </trkpt>
      <trkpt lat="50.43343" lon="3.46667">
        <ele>29.941503</ele>
        <time>2020-08-18T09:30:19.206Z</time>
      </trkpt>
      <trkpt lat="50.43374" lon="3.46594">
        <ele>30.648137</ele>
        <time>2020-08-18T09:30:30.457Z</time>
      </trkpt>
      <trkpt lat="50.4338" lon="3.46585">
        <ele>30.748134</ele>
        <time>2020-08-18T09:30:32.195Z</time>
      </trkpt>
      <trkpt lat="50.43393" lon="3.46579">
        <ele>30.924204</ele>
        <time>2020-08-18T09:30:35.483Z</time>
      </trkpt>
      <trkpt lat="50.4346" lon="3.46592">
        <ele>31.803719</ele>
        <time>2020-08-18T09:30:50.355Z</time>
      </trkpt>
      <trkpt lat="50.43489" lon="3.46569">
        <ele>32.254815</ele>
        <time>2020-08-18T09:30:57.672Z</time>
      </trkpt>
      <trkpt lat="50.43513" lon="3.46523">
        <ele>32.76439</ele>
        <time>2020-08-18T09:31:05.413Z</time>
      </trkpt>
      <trkpt lat="50.43524" lon="3.46483">
        <ele>33.139622</ele>
        <time>2020-08-18T09:31:11.210Z</time>
      </trkpt>
      <trkpt lat="50.43536" lon="3.46322">
        <ele>33.927231</ele>
        <time>2020-08-18T09:31:29.524Z</time>
      </trkpt>
      <trkpt lat="50.4354" lon="3.46303">
        <ele>33.964243</ele>
        <time>2020-08-18T09:31:31.129Z</time>
      </trkpt>
      <trkpt lat="50.43542" lon="3.46289">
        <ele>33.991865</ele>
        <time>2020-08-18T09:31:33.029Z</time>
      </trkpt>
      <trkpt lat="50.43597" lon="3.4606">
        <ele>33.995773</ele>
        <time>2020-08-18T09:31:56.276Z</time>
      </trkpt>
      <trkpt lat="50.43601" lon="3.46006">
        <ele>33.813581</ele>
        <time>2020-08-18T09:32:01.067Z</time>
      </trkpt>
      <trkpt lat="50.43607" lon="3.45893">
        <ele>33.434721</ele>
        <time>2020-08-18T09:32:10.236Z</time>
      </trkpt>
      <trkpt lat="50.43609" lon="3.45805">
        <ele>32.893562</ele>
        <time>2020-08-18T09:32:16.809Z</time>
      </trkpt>
      <trkpt lat="50.4361" lon="3.45755">
        <ele>32.525623</ele>
        <time>2020-08-18T09:32:20.575Z</time>
      </trkpt>
      <trkpt lat="50.43611" lon="3.45705">
        <ele>32.159748</ele>
        <time>2020-08-18T09:32:24.375Z</time>
      </trkpt>
      <trkpt lat="50.43612" lon="3.45671">
        <ele>31.918003</ele>
        <time>2020-08-18T09:32:26.961Z</time>
      </trkpt>
      <trkpt lat="50.43616" lon="3.45646">
        <ele>31.726374</ele>
        <time>2020-08-18T09:32:28.976Z</time>
      </trkpt>
      <trkpt lat="50.43625" lon="3.45608">
        <ele>31.434173</ele>
        <time>2020-08-18T09:32:32.097Z</time>
      </trkpt>
      <trkpt lat="50.43644" lon="3.45529">
        <ele>31.013165</ele>
        <time>2020-08-18T09:32:38.821Z</time>
      </trkpt>
      <trkpt lat="50.43659" lon="3.45458">
        <ele>30.69809</ele>
        <time>2020-08-18T09:32:44.829Z</time>
      </trkpt>
      <trkpt lat="50.43667" lon="3.45421">
        <ele>30.531594</ele>
        <time>2020-08-18T09:32:47.970Z</time>
      </trkpt>
      <trkpt lat="50.43689" lon="3.45318">
        <ele>30.064277</ele>
        <time>2020-08-18T09:32:57.506Z</time>
      </trkpt>
      <trkpt lat="50.43708" lon="3.45231">
        <ele>29.470461</ele>
        <time>2020-08-18T09:33:05.560Z</time>
      </trkpt>
      <trkpt lat="50.43716" lon="3.45204">
        <ele>29.275428</ele>
        <time>2020-08-18T09:33:07.984Z</time>
      </trkpt>
      <trkpt lat="50.43725" lon="3.45213">
        <ele>29.163308</ele>
        <time>2020-08-18T09:33:09.409Z</time>
      </trkpt>
      <trkpt lat="50.43833" lon="3.45322">
        <ele>27.332064</ele>
        <time>2020-08-18T09:33:23.999Z</time>
      </trkpt>
      <trkpt lat="50.4384" lon="3.4533">
        <ele>27.120664</ele>
        <time>2020-08-18T09:33:24.973Z</time>
      </trkpt>
      <trkpt lat="50.43867" lon="3.45356">
        <ele>26.374139</ele>
        <time>2020-08-18T09:33:28.363Z</time>
      </trkpt>
      <trkpt lat="50.43887" lon="3.45376">
        <ele>25.814849</ele>
        <time>2020-08-18T09:33:30.865Z</time>
      </trkpt>
      <trkpt lat="50.44022" lon="3.45509">
        <ele>21.832585</ele>
        <time>2020-08-18T09:33:47.383Z</time>
      </trkpt>
      <trkpt lat="50.44047" lon="3.45531">
        <ele>21.096902</ele>
        <time>2020-08-18T09:33:50.398Z</time>
      </trkpt>
      <trkpt lat="50.4405" lon="3.45535">
        <ele>20.976351</ele>
        <time>2020-08-18T09:33:50.894Z</time>
      </trkpt>
      <trkpt lat="50.44051" lon="3.45536">
        <ele>20.963072</ele>
        <time>2020-08-18T09:33:50.949Z</time>
      </trkpt>
      <trkpt lat="50.44052" lon="3.45538">
        <ele>20.916074</ele>
        <time>2020-08-18T09:33:51.145Z</time>
      </trkpt>
      <trkpt lat="50.44058" lon="3.45541">
        <ele>20.762551</ele>
        <time>2020-08-18T09:33:51.772Z</time>
      </trkpt>
      <trkpt lat="50.44064" lon="3.45544">
        <ele>20.590574</ele>
        <time>2020-08-18T09:33:52.472Z</time>
      </trkpt>
      <trkpt lat="50.44066" lon="3.45546">
        <ele>20.527149</ele>
        <time>2020-08-18T09:33:52.729Z</time>
      </trkpt>
      <trkpt lat="50.44068" lon="3.45548">
        <ele>20.463659</ele>
        <time>2020-08-18T09:33:52.989Z</time>
      </trkpt>
      <trkpt lat="50.44071" lon="3.45548">
        <ele>20.400974</ele>
        <time>2020-08-18T09:33:53.247Z</time>
      </trkpt>
      <trkpt lat="50.44073" lon="3.45554">
        <ele>20.286105</ele>
        <time>2020-08-18T09:33:53.722Z</time>
      </trkpt>
      <trkpt lat="50.44076" lon="3.45559">
        <ele>20.165928</ele>
        <time>2020-08-18T09:33:54.212Z</time>
      </trkpt>
      <trkpt lat="50.44076" lon="3.45559">
        <ele>20.165928</ele>
        <time>2020-08-18T09:33:54.215Z</time>
      </trkpt>
      <trkpt lat="50.44078" lon="3.45563">
        <ele>20.084584</ele>
        <time>2020-08-18T09:33:54.553Z</time>
      </trkpt>
      <trkpt lat="50.44085" lon="3.45569">
        <ele>19.889266</ele>
        <time>2020-08-18T09:33:55.351Z</time>
      </trkpt>
      <trkpt lat="50.44092" lon="3.45578">
        <ele>19.651129</ele>
        <time>2020-08-18T09:33:56.319Z</time>
      </trkpt>
      <trkpt lat="50.44123" lon="3.45609">
        <ele>18.945551</ele>
        <time>2020-08-18T09:34:00.218Z</time>
      </trkpt>
      <trkpt lat="50.44162" lon="3.4565">
        <ele>18.194393</ele>
        <time>2020-08-18T09:34:05.438Z</time>
      </trkpt>
      <trkpt lat="50.44248" lon="3.45733">
        <ele>16.614394</ele>
        <time>2020-08-18T09:34:17.221Z</time>
      </trkpt>
      <trkpt lat="50.44256" lon="3.45741">
        <ele>16.480161</ele>
        <time>2020-08-18T09:34:18.378Z</time>
      </trkpt>
      <trkpt lat="50.44257" lon="3.45742">
        <ele>16.47325</ele>
        <time>2020-08-18T09:34:18.607Z</time>
      </trkpt>
      <trkpt lat="50.4426" lon="3.45745">
        <ele>16.461968</ele>
        <time>2020-08-18T09:34:19.002Z</time>
      </trkpt>
      <trkpt lat="50.44385" lon="3.45872">
        <ele>15.943557</ele>
        <time>2020-08-18T09:34:38.829Z</time>
      </trkpt>
      <trkpt lat="50.4439" lon="3.45878">
        <ele>15.921528</ele>
        <time>2020-08-18T09:34:39.879Z</time>
      </trkpt>
      <trkpt lat="50.44392" lon="3.45879">
        <ele>15.914379</ele>
        <time>2020-08-18T09:34:40.207Z</time>
      </trkpt>
      <trkpt lat="50.44398" lon="3.45886">
        <ele>15.887923</ele>
        <time>2020-08-18T09:34:41.492Z</time>
      </trkpt>
      <trkpt lat="50.44468" lon="3.45957">
        <ele>16.475195</ele>
        <time>2020-08-18T09:34:56.751Z</time>
      </trkpt>
      <trkpt lat="50.4448" lon="3.45969">
        <ele>16.592535</ele>
        <time>2020-08-18T09:34:59.356Z</time>
      </trkpt>
      <trkpt lat="50.44498" lon="3.45985">
        <ele>16.760913</ele>
        <time>2020-08-18T09:35:03.083Z</time>
      </trkpt>
      <trkpt lat="50.44499" lon="3.45987">
        <ele>16.778618</ele>
        <time>2020-08-18T09:35:03.591Z</time>
      </trkpt>
      <trkpt lat="50.445" lon="3.45987">
        <ele>16.783537</ele>
        <time>2020-08-18T09:35:03.725Z</time>
      </trkpt>
      <trkpt lat="50.44506" lon="3.45993">
        <ele>16.84593</ele>
        <time>2020-08-18T09:35:05.089Z</time>
      </trkpt>
      <trkpt lat="50.44537" lon="3.46025">
        <ele>17.151717</ele>
        <time>2020-08-18T09:35:11.951Z</time>
      </trkpt>
      <trkpt lat="50.44572" lon="3.4606">
        <ele>17.457802</ele>
        <time>2020-08-18T09:35:19.692Z</time>
      </trkpt>
      <trkpt lat="50.44576" lon="3.46064">
        <ele>17.488082</ele>
        <time>2020-08-18T09:35:20.605Z</time>
      </trkpt>
      <trkpt lat="50.44581" lon="3.4607">
        <ele>17.525097</ele>
        <time>2020-08-18T09:35:21.719Z</time>
      </trkpt>
      <trkpt lat="50.44582" lon="3.46075">
        <ele>17.548833</ele>
        <time>2020-08-18T09:35:22.431Z</time>
      </trkpt>
      <trkpt lat="50.44582" lon="3.46083">
        <ele>17.579385</ele>
        <time>2020-08-18T09:35:23.302Z</time>
      </trkpt>
      <trkpt lat="50.44581" lon="3.4609">
        <ele>17.610966</ele>
        <time>2020-08-18T09:35:24.372Z</time>
      </trkpt>
      <trkpt lat="50.44577" lon="3.46098">
        <ele>17.647786</ele>
        <time>2020-08-18T09:35:25.398Z</time>
      </trkpt>
      <trkpt lat="50.44577" lon="3.46103">
        <ele>17.667314</ele>
        <time>2020-08-18T09:35:25.957Z</time>
      </trkpt>
      <trkpt lat="50.44577" lon="3.46106">
        <ele>17.680538</ele>
        <time>2020-08-18T09:35:26.342Z</time>
      </trkpt>
      <trkpt lat="50.44579" lon="3.46113">
        <ele>17.708148</ele>
        <time>2020-08-18T09:35:27.167Z</time>
      </trkpt>
      <trkpt lat="50.44582" lon="3.46119">
        <ele>17.7395</ele>
        <time>2020-08-18T09:35:28.110Z</time>
      </trkpt>
      <trkpt lat="50.44588" lon="3.46122">
        <ele>17.77909</ele>
        <time>2020-08-18T09:35:29.286Z</time>
      </trkpt>
      <trkpt lat="50.44612" lon="3.46086">
        <ele>17.984775</ele>
        <time>2020-08-18T09:35:35.250Z</time>
      </trkpt>
      <trkpt lat="50.4462" lon="3.46072">
        <ele>18.062135</ele>
        <time>2020-08-18T09:35:37.381Z</time>
      </trkpt>
      <trkpt lat="50.44633" lon="3.46054">
        <ele>18.16515</ele>
        <time>2020-08-18T09:35:40.126Z</time>
      </trkpt>
      <trkpt lat="50.44655" lon="3.4602">
        <ele>18.358327</ele>
        <time>2020-08-18T09:35:45.156Z</time>
      </trkpt>
      <trkpt lat="50.44663" lon="3.46005">
        <ele>18.43524</ele>
        <time>2020-08-18T09:35:47.133Z</time>
      </trkpt>
      <trkpt lat="50.44667" lon="3.45993">
        <ele>18.465819</ele>
        <time>2020-08-18T09:35:48.532Z</time>
      </trkpt>
      <trkpt lat="50.44712" lon="3.45709">
        <ele>18.231811</ele>
        <time>2020-08-18T09:36:15.098Z</time>
      </trkpt>
      <trkpt lat="50.44714" lon="3.45691">
        <ele>18.190732</ele>
        <time>2020-08-18T09:36:16.656Z</time>
      </trkpt>
      <trkpt lat="50.44714" lon="3.45674">
        <ele>18.15091</ele>
        <time>2020-08-18T09:36:18.229Z</time>
      </trkpt>
      <trkpt lat="50.44711" lon="3.45637">
        <ele>18.065384</ele>
        <time>2020-08-18T09:36:21.498Z</time>
      </trkpt>
      <trkpt lat="50.44677" lon="3.45503">
        <ele>17.736382</ele>
        <time>2020-08-18T09:36:34.052Z</time>
      </trkpt>
      <trkpt lat="50.44672" lon="3.45464">
        <ele>17.644514</ele>
        <time>2020-08-18T09:36:37.447Z</time>
      </trkpt>
      <trkpt lat="50.44677" lon="3.45429">
        <ele>17.523543</ele>
        <time>2020-08-18T09:36:40.438Z</time>
      </trkpt>
      <trkpt lat="50.44708" lon="3.45297">
        <ele>16.978954</ele>
        <time>2020-08-18T09:36:52.051Z</time>
      </trkpt>
      <trkpt lat="50.44718" lon="3.45255">
        <ele>16.805965</ele>
        <time>2020-08-18T09:36:55.781Z</time>
      </trkpt>
      <trkpt lat="50.44737" lon="3.45214">
        <ele>16.60809</ele>
        <time>2020-08-18T09:37:00.041Z</time>
      </trkpt>
      <trkpt lat="50.44746" lon="3.45199">
        <ele>16.530377</ele>
        <time>2020-08-18T09:37:01.630Z</time>
      </trkpt>
      <trkpt lat="50.44752" lon="3.4519">
        <ele>16.488883</ele>
        <time>2020-08-18T09:37:02.737Z</time>
      </trkpt>
      <trkpt lat="50.44761" lon="3.45171">
        <ele>16.412938</ele>
        <time>2020-08-18T09:37:04.772Z</time>
      </trkpt>
      <trkpt lat="50.44775" lon="3.45127">
        <ele>16.253914</ele>
        <time>2020-08-18T09:37:08.915Z</time>
      </trkpt>
      <trkpt lat="50.44783" lon="3.45112">
        <ele>16.192091</ele>
        <time>2020-08-18T09:37:10.489Z</time>
      </trkpt>
      <trkpt lat="50.44789" lon="3.45112">
        <ele>16.162853</ele>
        <time>2020-08-18T09:37:11.227Z</time>
      </trkpt>
      <trkpt lat="50.44796" lon="3.45117">
        <ele>16.126509</ele>
        <time>2020-08-18T09:37:12.195Z</time>
      </trkpt>
      <trkpt lat="50.44815" lon="3.45146">
        <ele>15.991171</ele>
        <time>2020-08-18T09:37:15.739Z</time>
      </trkpt>
      <trkpt lat="50.44827" lon="3.45163">
        <ele>15.910136</ele>
        <time>2020-08-18T09:37:17.984Z</time>
      </trkpt>
      <trkpt lat="50.44838" lon="3.45177">
        <ele>15.839444</ele>
        <time>2020-08-18T09:37:19.870Z</time>
      </trkpt>
      <trkpt lat="50.44897" lon="3.45226">
        <ele>15.527937</ele>
        <time>2020-08-18T09:37:28.977Z</time>
      </trkpt>
      <trkpt lat="50.44996" lon="3.45262">
        <ele>15.126524</ele>
        <time>2020-08-18T09:37:42.763Z</time>
      </trkpt>
      <trkpt lat="50.45008" lon="3.45267">
        <ele>15.074814</ele>
        <time>2020-08-18T09:37:44.486Z</time>
      </trkpt>
      <trkpt lat="50.45021" lon="3.45276">
        <ele>15.021862</ele>
        <time>2020-08-18T09:37:46.343Z</time>
      </trkpt>
      <trkpt lat="50.45023" lon="3.45267">
        <ele>14.99791</ele>
        <time>2020-08-18T09:37:47.434Z</time>
      </trkpt>
      <trkpt lat="50.45023" lon="3.45267">
        <ele>14.997514</ele>
        <time>2020-08-18T09:37:47.452Z</time>
      </trkpt>
      <trkpt lat="50.45022" lon="3.45243">
        <ele>14.937371</ele>
        <time>2020-08-18T09:37:50.269Z</time>
      </trkpt>
      <trkpt lat="50.45048" lon="3.45235">
        <ele>14.82592</ele>
        <time>2020-08-18T09:37:55.352Z</time>
      </trkpt>
      <trkpt lat="50.4507" lon="3.45239">
        <ele>14.733482</ele>
        <time>2020-08-18T09:37:59.511Z</time>
      </trkpt>
      <trkpt lat="50.45074" lon="3.45248">
        <ele>14.703754</ele>
        <time>2020-08-18T09:38:00.810Z</time>
      </trkpt>
      <trkpt lat="50.45081" lon="3.45259">
        <ele>14.66314</ele>
        <time>2020-08-18T09:38:02.623Z</time>
      </trkpt>
      <trkpt lat="50.45082" lon="3.45256">
        <ele>14.652562</ele>
        <time>2020-08-18T09:38:02.957Z</time>
      </trkpt>
      <trkpt lat="50.4509" lon="3.45239">
        <ele>14.598507</ele>
        <time>2020-08-18T09:38:04.721Z</time>
      </trkpt>
      <trkpt lat="50.45107" lon="3.45219">
        <ele>14.511301</ele>
        <time>2020-08-18T09:38:07.461Z</time>
      </trkpt>
      <trkpt lat="50.45178" lon="3.45123">
        <ele>14.155644</ele>
        <time>2020-08-18T09:38:20.186Z</time>
      </trkpt>
      <trkpt lat="50.45213" lon="3.4505">
        <ele>14.10953</ele>
        <time>2020-08-18T09:38:28.208Z</time>
      </trkpt>
      <trkpt lat="50.45227" lon="3.45006">
        <ele>14.084377</ele>
        <time>2020-08-18T09:38:32.732Z</time>
      </trkpt>
      <trkpt lat="50.4525" lon="3.44922">
        <ele>14.038045</ele>
        <time>2020-08-18T09:38:41.391Z</time>
      </trkpt>
      <trkpt lat="50.45269" lon="3.44854">
        <ele>14.160457</ele>
        <time>2020-08-18T09:38:48.841Z</time>
      </trkpt>
      <trkpt lat="50.45312" lon="3.44694">
        <ele>14.75548</ele>
        <time>2020-08-18T09:39:08.271Z</time>
      </trkpt>
      <trkpt lat="50.45331" lon="3.44624">
        <ele>15.001815</ele>
        <time>2020-08-18T09:39:17.074Z</time>
      </trkpt>
      <trkpt lat="50.45358" lon="3.44521">
        <ele>15.190922</ele>
        <time>2020-08-18T09:39:28.803Z</time>
      </trkpt>
      <trkpt lat="50.4537" lon="3.44474">
        <ele>15.276235</ele>
        <time>2020-08-18T09:39:33.790Z</time>
      </trkpt>
      <trkpt lat="50.45379" lon="3.44451">
        <ele>15.323933</ele>
        <time>2020-08-18T09:39:36.487Z</time>
      </trkpt>
      <trkpt lat="50.45394" lon="3.44419">
        <ele>15.390331</ele>
        <time>2020-08-18T09:39:40.291Z</time>
      </trkpt>
      <trkpt lat="50.45398" lon="3.44411">
        <ele>15.407206</ele>
        <time>2020-08-18T09:39:41.205Z</time>
      </trkpt>
      <trkpt lat="50.45401" lon="3.4441">
        <ele>15.417409</ele>
        <time>2020-08-18T09:39:41.794Z</time>
      </trkpt>
      <trkpt lat="50.45405" lon="3.44408">
        <ele>15.428604</ele>
        <time>2020-08-18T09:39:42.480Z</time>
      </trkpt>
      <trkpt lat="50.45408" lon="3.44406">
        <ele>15.436087</ele>
        <time>2020-08-18T09:39:42.879Z</time>
      </trkpt>
      <trkpt lat="50.45412" lon="3.44401">
        <ele>15.451293</ele>
        <time>2020-08-18T09:39:43.723Z</time>
      </trkpt>
      <trkpt lat="50.45417" lon="3.44391">
        <ele>15.467898</ele>
        <time>2020-08-18T09:39:44.859Z</time>
      </trkpt>
      <trkpt lat="50.45418" lon="3.44382">
        <ele>15.467636</ele>
        <time>2020-08-18T09:39:45.707Z</time>
      </trkpt>
      <trkpt lat="50.45416" lon="3.44361">
        <ele>15.467034</ele>
        <time>2020-08-18T09:39:47.781Z</time>
      </trkpt>
      <trkpt lat="50.45412" lon="3.44353">
        <ele>15.466779</ele>
        <time>2020-08-18T09:39:48.602Z</time>
      </trkpt>
      <trkpt lat="50.45414" lon="3.44324">
        <ele>15.465954</ele>
        <time>2020-08-18T09:39:51.293Z</time>
      </trkpt>
      <trkpt lat="50.45423" lon="3.44284">
        <ele>15.464784</ele>
        <time>2020-08-18T09:39:55.154Z</time>
      </trkpt>
      <trkpt lat="50.45496" lon="3.44019">
        <ele>15.679986</ele>
        <time>2020-08-18T09:40:22.636Z</time>
      </trkpt>
      <trkpt lat="50.45557" lon="3.43795">
        <ele>16.097809</ele>
        <time>2020-08-18T09:40:48.825Z</time>
      </trkpt>
      <trkpt lat="50.45569" lon="3.4376">
        <ele>16.156924</ele>
        <time>2020-08-18T09:40:53.124Z</time>
      </trkpt>
      <trkpt lat="50.45577" lon="3.43737">
        <ele>16.196461</ele>
        <time>2020-08-18T09:40:55.709Z</time>
      </trkpt>
      <trkpt lat="50.45581" lon="3.43737">
        <ele>16.206817</ele>
        <time>2020-08-18T09:40:56.408Z</time>
      </trkpt>
      <trkpt lat="50.45584" lon="3.43736">
        <ele>16.212553</ele>
        <time>2020-08-18T09:40:56.837Z</time>
      </trkpt>
      <trkpt lat="50.45589" lon="3.4373">
        <ele>16.228233</ele>
        <time>2020-08-18T09:40:57.974Z</time>
      </trkpt>
      <trkpt lat="50.45593" lon="3.43722">
        <ele>16.243124</ele>
        <time>2020-08-18T09:40:58.994Z</time>
      </trkpt>
      <trkpt lat="50.45594" lon="3.43712">
        <ele>16.258392</ele>
        <time>2020-08-18T09:40:59.961Z</time>
      </trkpt>
      <trkpt lat="50.45593" lon="3.43702">
        <ele>16.273761</ele>
        <time>2020-08-18T09:41:00.873Z</time>
      </trkpt>
      <trkpt lat="50.45589" lon="3.43694">
        <ele>16.289055</ele>
        <time>2020-08-18T09:41:01.799Z</time>
      </trkpt>
      <trkpt lat="50.45592" lon="3.43677">
        <ele>16.31489</ele>
        <time>2020-08-18T09:41:03.574Z</time>
      </trkpt>
      <trkpt lat="50.456" lon="3.43639">
        <ele>16.374481</ele>
        <time>2020-08-18T09:41:07.085Z</time>
      </trkpt>
      <trkpt lat="50.45607" lon="3.43612">
        <ele>16.380396</ele>
        <time>2020-08-18T09:41:09.850Z</time>
      </trkpt>
      <trkpt lat="50.4563" lon="3.43524">
        <ele>16.2573</ele>
        <time>2020-08-18T09:41:18.461Z</time>
      </trkpt>
      <trkpt lat="50.45665" lon="3.434">
        <ele>16.082058</ele>
        <time>2020-08-18T09:41:30.670Z</time>
      </trkpt>
      <trkpt lat="50.4569" lon="3.43309">
        <ele>15.990059</ele>
        <time>2020-08-18T09:41:39.325Z</time>
      </trkpt>
      <trkpt lat="50.45777" lon="3.42992">
        <ele>15.760237</ele>
        <time>2020-08-18T09:42:11.712Z</time>
      </trkpt>
      <trkpt lat="50.45779" lon="3.42984">
        <ele>15.755165</ele>
        <time>2020-08-18T09:42:12.465Z</time>
      </trkpt>
      <trkpt lat="50.45792" lon="3.42944">
        <ele>15.727876</ele>
        <time>2020-08-18T09:42:16.420Z</time>
      </trkpt>
      <trkpt lat="50.45804" lon="3.42913">
        <ele>15.705615</ele>
        <time>2020-08-18T09:42:19.614Z</time>
      </trkpt>
      <trkpt lat="50.45815" lon="3.4289">
        <ele>15.687876</ele>
        <time>2020-08-18T09:42:22.350Z</time>
      </trkpt>
      <trkpt lat="50.45831" lon="3.4286">
        <ele>15.663774</ele>
        <time>2020-08-18T09:42:25.936Z</time>
      </trkpt>
      <trkpt lat="50.45838" lon="3.42849">
        <ele>15.657941</ele>
        <time>2020-08-18T09:42:27.426Z</time>
      </trkpt>
      <trkpt lat="50.45854" lon="3.42826">
        <ele>15.645517</ele>
        <time>2020-08-18T09:42:30.473Z</time>
      </trkpt>
      <trkpt lat="50.45868" lon="3.42807">
        <ele>15.635035</ele>
        <time>2020-08-18T09:42:33.234Z</time>
      </trkpt>
      <trkpt lat="50.45917" lon="3.42747">
        <ele>15.600181</ele>
        <time>2020-08-18T09:42:42.068Z</time>
      </trkpt>
      <trkpt lat="50.4592" lon="3.42743">
        <ele>15.597673</ele>
        <time>2020-08-18T09:42:42.763Z</time>
      </trkpt>
      <trkpt lat="50.45935" lon="3.42725">
        <ele>15.587172</ele>
        <time>2020-08-18T09:42:45.520Z</time>
      </trkpt>
      <trkpt lat="50.45946" lon="3.42712">
        <ele>15.579687</ele>
        <time>2020-08-18T09:42:47.509Z</time>
      </trkpt>
      <trkpt lat="50.45971" lon="3.42684">
        <ele>15.562335</ele>
        <time>2020-08-18T09:42:52.247Z</time>
      </trkpt>
      <trkpt lat="50.4599" lon="3.4267">
        <ele>15.559034</ele>
        <time>2020-08-18T09:42:55.651Z</time>
      </trkpt>
      <trkpt lat="50.46119" lon="3.42658">
        <ele>15.543359</ele>
        <time>2020-08-18T09:43:14.724Z</time>
      </trkpt>
      <trkpt lat="50.46143" lon="3.42655">
        <ele>15.540534</ele>
        <time>2020-08-18T09:43:18.109Z</time>
      </trkpt>
      <trkpt lat="50.46153" lon="3.42654">
        <ele>15.541857</ele>
        <time>2020-08-18T09:43:19.532Z</time>
      </trkpt>
      <trkpt lat="50.46218" lon="3.4265">
        <ele>15.589052</ele>
        <time>2020-08-18T09:43:29.206Z</time>
      </trkpt>
      <trkpt lat="50.46258" lon="3.4265">
        <ele>15.617621</ele>
        <time>2020-08-18T09:43:35.157Z</time>
      </trkpt>
      <trkpt lat="50.4628" lon="3.42646">
        <ele>15.63357</ele>
        <time>2020-08-18T09:43:38.534Z</time>
      </trkpt>
      <trkpt lat="50.46339" lon="3.42626">
        <ele>15.685795</ele>
        <time>2020-08-18T09:43:47.977Z</time>
      </trkpt>
      <trkpt lat="50.46472" lon="3.42558">
        <ele>15.901381</ele>
        <time>2020-08-18T09:44:09.747Z</time>
      </trkpt>
      <trkpt lat="50.46482" lon="3.42556">
        <ele>15.917554</ele>
        <time>2020-08-18T09:44:11.552Z</time>
      </trkpt>
      <trkpt lat="50.46481" lon="3.42539">
        <ele>15.934219</ele>
        <time>2020-08-18T09:44:13.605Z</time>
      </trkpt>
      <trkpt lat="50.46452" lon="3.4243">
        <ele>15.988168</ele>
        <time>2020-08-18T09:44:28.754Z</time>
      </trkpt>
      <trkpt lat="50.46429" lon="3.42342">
        <ele>16.026313</ele>
        <time>2020-08-18T09:44:40.998Z</time>
      </trkpt>
      <trkpt lat="50.46419" lon="3.42275">
        <ele>16.054135</ele>
        <time>2020-08-18T09:44:50.051Z</time>
      </trkpt>
      <trkpt lat="50.46419" lon="3.42185">
        <ele>16.229686</ele>
        <time>2020-08-18T09:45:02.510Z</time>
      </trkpt>
      <trkpt lat="50.46419" lon="3.42162">
        <ele>16.280187</ele>
        <time>2020-08-18T09:45:05.743Z</time>
      </trkpt>
      <trkpt lat="50.46421" lon="3.42065">
        <ele>16.492522</ele>
        <time>2020-08-18T09:45:19.237Z</time>
      </trkpt>
      <trkpt lat="50.46422" lon="3.42051">
        <ele>16.522829</ele>
        <time>2020-08-18T09:45:21.209Z</time>
      </trkpt>
      <trkpt lat="50.46423" lon="3.41972">
        <ele>16.682667</ele>
        <time>2020-08-18T09:45:32.054Z</time>
      </trkpt>
      <trkpt lat="50.46423" lon="3.41971">
        <ele>16.683349</ele>
        <time>2020-08-18T09:45:32.323Z</time>
      </trkpt>
      <trkpt lat="50.46425" lon="3.41957">
        <ele>16.689669</ele>
        <time>2020-08-18T09:45:34.486Z</time>
      </trkpt>
      <trkpt lat="50.4643" lon="3.41911">
        <ele>16.711009</ele>
        <time>2020-08-18T09:45:40.632Z</time>
      </trkpt>
      <trkpt lat="50.46435" lon="3.41887">
        <ele>16.722686</ele>
        <time>2020-08-18T09:45:44.241Z</time>
      </trkpt>
      <trkpt lat="50.46446" lon="3.41851">
        <ele>16.740339</ele>
        <time>2020-08-18T09:45:49.516Z</time>
      </trkpt>
      <trkpt lat="50.46457" lon="3.41826">
        <ele>16.754192</ele>
        <time>2020-08-18T09:45:53.342Z</time>
      </trkpt>
      <trkpt lat="50.4647" lon="3.41791">
        <ele>16.772885</ele>
        <time>2020-08-18T09:45:58.767Z</time>
      </trkpt>
      <trkpt lat="50.46482" lon="3.41755">
        <ele>16.791178</ele>
        <time>2020-08-18T09:46:04.004Z</time>
      </trkpt>
      <trkpt lat="50.46464" lon="3.4174">
        <ele>16.805396</ele>
        <time>2020-08-18T09:46:06.582Z</time>
      </trkpt>
      <trkpt lat="50.46455" lon="3.41732">
        <ele>16.771436</ele>
        <time>2020-08-18T09:46:08.005Z</time>
      </trkpt>
      <trkpt lat="50.4642" lon="3.4166">
        <ele>16.469459</ele>
        <time>2020-08-18T09:46:15.650Z</time>
      </trkpt>
      <trkpt lat="50.46402" lon="3.41629">
        <ele>16.327609</ele>
        <time>2020-08-18T09:46:19.276Z</time>
      </trkpt>
      <trkpt lat="50.46354" lon="3.41553">
        <ele>15.969123</ele>
        <time>2020-08-18T09:46:28.129Z</time>
      </trkpt>
      <trkpt lat="50.46339" lon="3.41524">
        <ele>15.841205</ele>
        <time>2020-08-18T09:46:31.235Z</time>
      </trkpt>
      <trkpt lat="50.46334" lon="3.41513">
        <ele>15.786568</ele>
        <time>2020-08-18T09:46:32.302Z</time>
      </trkpt>
      <trkpt lat="50.46331" lon="3.41496">
        <ele>15.711007</ele>
        <time>2020-08-18T09:46:33.686Z</time>
      </trkpt>
      <trkpt lat="50.46319" lon="3.41418">
        <ele>15.374823</ele>
        <time>2020-08-18T09:46:40.406Z</time>
      </trkpt>
      <trkpt lat="50.46299" lon="3.41382">
        <ele>15.175046</ele>
        <time>2020-08-18T09:46:44.248Z</time>
      </trkpt>
      <trkpt lat="50.46288" lon="3.41364">
        <ele>15.071687</ele>
        <time>2020-08-18T09:46:46.271Z</time>
      </trkpt>
      <trkpt lat="50.46286" lon="3.41347">
        <ele>15.001736</ele>
        <time>2020-08-18T09:46:47.539Z</time>
      </trkpt>
      <trkpt lat="50.46284" lon="3.41298">
        <ele>14.792473</ele>
        <time>2020-08-18T09:46:51.667Z</time>
      </trkpt>
      <trkpt lat="50.46295" lon="3.4122">
        <ele>14.600948</ele>
        <time>2020-08-18T09:46:58.464Z</time>
      </trkpt>
      <trkpt lat="50.46309" lon="3.41189">
        <ele>14.542679</ele>
        <time>2020-08-18T09:47:01.699Z</time>
      </trkpt>
      <trkpt lat="50.46391" lon="3.41045">
        <ele>14.249822</ele>
        <time>2020-08-18T09:47:19.250Z</time>
      </trkpt>
      <trkpt lat="50.46404" lon="3.41015">
        <ele>14.296077</ele>
        <time>2020-08-18T09:47:22.636Z</time>
      </trkpt>
      <trkpt lat="50.4642" lon="3.40957">
        <ele>14.377587</ele>
        <time>2020-08-18T09:47:28.827Z</time>
      </trkpt>
      <trkpt lat="50.46424" lon="3.40929">
        <ele>14.414897</ele>
        <time>2020-08-18T09:47:31.784Z</time>
      </trkpt>
      <trkpt lat="50.46428" lon="3.40905">
        <ele>14.447215</ele>
        <time>2020-08-18T09:47:34.206Z</time>
      </trkpt>
      <trkpt lat="50.46434" lon="3.40842">
        <ele>14.529641</ele>
        <time>2020-08-18T09:47:40.815Z</time>
      </trkpt>
      <trkpt lat="50.46436" lon="3.40794">
        <ele>14.592168</ele>
        <time>2020-08-18T09:47:45.819Z</time>
      </trkpt>
      <trkpt lat="50.46437" lon="3.40779">
        <ele>14.611094</ele>
        <time>2020-08-18T09:47:47.550Z</time>
      </trkpt>
      <trkpt lat="50.46425" lon="3.4062">
        <ele>15.095274</ele>
        <time>2020-08-18T09:48:04.670Z</time>
      </trkpt>
      <trkpt lat="50.46428" lon="3.40605">
        <ele>15.14207</ele>
        <time>2020-08-18T09:48:06.553Z</time>
      </trkpt>
      <trkpt lat="50.46418" lon="3.40602">
        <ele>15.190387</ele>
        <time>2020-08-18T09:48:08.122Z</time>
      </trkpt>
      <trkpt lat="50.46413" lon="3.40586">
        <ele>15.244475</ele>
        <time>2020-08-18T09:48:10.561Z</time>
      </trkpt>
      <trkpt lat="50.464" lon="3.40499">
        <ele>15.490795</ele>
        <time>2020-08-18T09:48:23.159Z</time>
      </trkpt>
      <trkpt lat="50.46392" lon="3.4048">
        <ele>15.525608</ele>
        <time>2020-08-18T09:48:26.244Z</time>
      </trkpt>
      <trkpt lat="50.46385" lon="3.40475">
        <ele>15.543995</ele>
        <time>2020-08-18T09:48:27.969Z</time>
      </trkpt>
      <trkpt lat="50.46135" lon="3.40489">
        <ele>15.991268</ele>
        <time>2020-08-18T09:49:20.611Z</time>
      </trkpt>
      <trkpt lat="50.46062" lon="3.40478">
        <ele>16.059587</ele>
        <time>2020-08-18T09:49:35.268Z</time>
      </trkpt>
      <trkpt lat="50.46002" lon="3.40464">
        <ele>16.058985</ele>
        <time>2020-08-18T09:49:47.371Z</time>
      </trkpt>
      <trkpt lat="50.46026" lon="3.4044">
        <ele>16.056651</ele>
        <time>2020-08-18T09:49:52.967Z</time>
      </trkpt>
      <trkpt lat="50.46049" lon="3.40402">
        <ele>16.053919</ele>
        <time>2020-08-18T09:49:59.531Z</time>
      </trkpt>
      <trkpt lat="50.461" lon="3.40218">
        <ele>16.192113</ele>
        <time>2020-08-18T09:50:25.877Z</time>
      </trkpt>
      <trkpt lat="50.46115" lon="3.40189">
        <ele>16.244409</ele>
        <time>2020-08-18T09:50:31.033Z</time>
      </trkpt>
      <trkpt lat="50.46147" lon="3.4016">
        <ele>16.325253</ele>
        <time>2020-08-18T09:50:39.059Z</time>
      </trkpt>
      <trkpt lat="50.46155" lon="3.40155">
        <ele>16.344042</ele>
        <time>2020-08-18T09:50:40.938Z</time>
      </trkpt>
      <trkpt lat="50.46165" lon="3.40098">
        <ele>16.426299</ele>
        <time>2020-08-18T09:50:47.132Z</time>
      </trkpt>
      <trkpt lat="50.46174" lon="3.40043">
        <ele>16.539574</ele>
        <time>2020-08-18T09:50:53.041Z</time>
      </trkpt>
      <trkpt lat="50.46175" lon="3.40013">
        <ele>16.603683</ele>
        <time>2020-08-18T09:50:56.204Z</time>
      </trkpt>
      <trkpt lat="50.46159" lon="3.39885">
        <ele>16.882803</ele>
        <time>2020-08-18T09:51:09.886Z</time>
      </trkpt>
      <trkpt lat="50.4616" lon="3.39852">
        <ele>16.952913</ele>
        <time>2020-08-18T09:51:13.150Z</time>
      </trkpt>
      <trkpt lat="50.46161" lon="3.39848">
        <ele>16.961362</ele>
        <time>2020-08-18T09:51:13.572Z</time>
      </trkpt>
      <trkpt lat="50.46181" lon="3.39747">
        <ele>17.193131</ele>
        <time>2020-08-18T09:51:24.035Z</time>
      </trkpt>
      <trkpt lat="50.46186" lon="3.39706">
        <ele>17.286087</ele>
        <time>2020-08-18T09:51:28.257Z</time>
      </trkpt>
      <trkpt lat="50.46165" lon="3.39605">
        <ele>17.520901</ele>
        <time>2020-08-18T09:51:39.126Z</time>
      </trkpt>
      <trkpt lat="50.46097" lon="3.39361">
        <ele>18.286364</ele>
        <time>2020-08-18T09:52:08.311Z</time>
      </trkpt>
      <trkpt lat="50.46088" lon="3.39317">
        <ele>18.43016</ele>
        <time>2020-08-18T09:52:13.289Z</time>
      </trkpt>
      <trkpt lat="50.4609" lon="3.39314">
        <ele>18.445299</ele>
        <time>2020-08-18T09:52:13.780Z</time>
      </trkpt>
      <trkpt lat="50.46177" lon="3.39233">
        <ele>18.422387</ele>
        <time>2020-08-18T09:52:29.362Z</time>
      </trkpt>
      <trkpt lat="50.46366" lon="3.39018">
        <ele>17.821225</ele>
        <time>2020-08-18T09:53:00.739Z</time>
      </trkpt>
      <trkpt lat="50.4638" lon="3.39003">
        <ele>17.762179</ele>
        <time>2020-08-18T09:53:03.155Z</time>
      </trkpt>
      <trkpt lat="50.46404" lon="3.38968">
        <ele>17.664778</ele>
        <time>2020-08-18T09:53:07.807Z</time>
      </trkpt>
      <trkpt lat="50.46414" lon="3.38951">
        <ele>17.657102</ele>
        <time>2020-08-18T09:53:10.005Z</time>
      </trkpt>
      <trkpt lat="50.46418" lon="3.38924">
        <ele>17.64813</ele>
        <time>2020-08-18T09:53:12.558Z</time>
      </trkpt>
      <trkpt lat="50.46439" lon="3.38824">
        <ele>17.613963</ele>
        <time>2020-08-18T09:53:22.469Z</time>
      </trkpt>
      <trkpt lat="50.46447" lon="3.3879">
        <ele>17.602316</ele>
        <time>2020-08-18T09:53:25.898Z</time>
      </trkpt>
      <trkpt lat="50.46457" lon="3.38697">
        <ele>17.566515</ele>
        <time>2020-08-18T09:53:34.899Z</time>
      </trkpt>
      <trkpt lat="50.46489" lon="3.38586">
        <ele>17.466623</ele>
        <time>2020-08-18T09:53:45.950Z</time>
      </trkpt>
      <trkpt lat="50.46547" lon="3.38485">
        <ele>17.355024</ele>
        <time>2020-08-18T09:53:58.173Z</time>
      </trkpt>
      <trkpt lat="50.46607" lon="3.38398">
        <ele>17.432371</ele>
        <time>2020-08-18T09:54:10.481Z</time>
      </trkpt>
      <trkpt lat="50.4664" lon="3.38336">
        <ele>17.494598</ele>
        <time>2020-08-18T09:54:18.534Z</time>
      </trkpt>
      <trkpt lat="50.46651" lon="3.38318">
        <ele>17.513369</ele>
        <time>2020-08-18T09:54:21.006Z</time>
      </trkpt>
      <trkpt lat="50.46673" lon="3.38278">
        <ele>17.554633</ele>
        <time>2020-08-18T09:54:26.399Z</time>
      </trkpt>
      <trkpt lat="50.4669" lon="3.38236">
        <ele>17.571245</ele>
        <time>2020-08-18T09:54:31.355Z</time>
      </trkpt>
      <trkpt lat="50.46702" lon="3.38178">
        <ele>17.585229</ele>
        <time>2020-08-18T09:54:37.364Z</time>
      </trkpt>
      <trkpt lat="50.46727" lon="3.38116">
        <ele>17.602187</ele>
        <time>2020-08-18T09:54:44.530Z</time>
      </trkpt>
      <trkpt lat="50.46728" lon="3.38114">
        <ele>17.602874</ele>
        <time>2020-08-18T09:54:44.998Z</time>
      </trkpt>
      <trkpt lat="50.46738" lon="3.38104">
        <ele>17.6072</ele>
        <time>2020-08-18T09:54:46.606Z</time>
      </trkpt>
      <trkpt lat="50.46799" lon="3.38044">
        <ele>17.579682</ele>
        <time>2020-08-18T09:54:56.794Z</time>
      </trkpt>
      <trkpt lat="50.4682" lon="3.38012">
        <ele>17.497143</ele>
        <time>2020-08-18T09:55:00.878Z</time>
      </trkpt>
      <trkpt lat="50.4691" lon="3.378">
        <ele>17.101</ele>
        <time>2020-08-18T09:55:23.105Z</time>
      </trkpt>
      <trkpt lat="50.46934" lon="3.37755">
        <ele>17.076439</ele>
        <time>2020-08-18T09:55:28.457Z</time>
      </trkpt>
      <trkpt lat="50.46944" lon="3.37741">
        <ele>17.067225</ele>
        <time>2020-08-18T09:55:30.496Z</time>
      </trkpt>
      <trkpt lat="50.46915" lon="3.37692">
        <ele>17.038807</ele>
        <time>2020-08-18T09:55:36.870Z</time>
      </trkpt>
      <trkpt lat="50.46895" lon="3.37661">
        <ele>17.020295</ele>
        <time>2020-08-18T09:55:40.954Z</time>
      </trkpt>
      <trkpt lat="50.46888" lon="3.37661">
        <ele>17.015425</ele>
        <time>2020-08-18T09:55:43.742Z</time>
      </trkpt>
      <trkpt lat="50.46884" lon="3.37662">
        <ele>17.012691</ele>
        <time>2020-08-18T09:55:45.298Z</time>
      </trkpt>
      <trkpt lat="50.46888" lon="3.37661">
        <ele>17.009957</ele>
        <time>2020-08-18T09:55:46.775Z</time>
      </trkpt>
      <trkpt lat="50.46895" lon="3.37661">
        <ele>17.005087</ele>
        <time>2020-08-18T09:55:49.436Z</time>
      </trkpt>
      <trkpt lat="50.46787" lon="3.37489">
        <ele>16.92191</ele>
        <time>2020-08-18T09:56:12.412Z</time>
      </trkpt>
      <trkpt lat="50.46744" lon="3.37394">
        <ele>16.883164</ele>
        <time>2020-08-18T09:56:22.917Z</time>
      </trkpt>
      <trkpt lat="50.46719" lon="3.37323">
        <ele>16.857096</ele>
        <time>2020-08-18T09:56:30.287Z</time>
      </trkpt>
      <trkpt lat="50.46696" lon="3.37251">
        <ele>16.831362</ele>
        <time>2020-08-18T09:56:37.694Z</time>
      </trkpt>
      <trkpt lat="50.46682" lon="3.37206">
        <ele>16.815051</ele>
        <time>2020-08-18T09:56:42.505Z</time>
      </trkpt>
      <trkpt lat="50.4657" lon="3.36849">
        <ele>17.696808</ele>
        <time>2020-08-18T09:57:24.195Z</time>
      </trkpt>
      <trkpt lat="50.46557" lon="3.36818">
        <ele>17.785637</ele>
        <time>2020-08-18T09:57:28.290Z</time>
      </trkpt>
      <trkpt lat="50.46488" lon="3.36738">
        <ele>18.112012</ele>
        <time>2020-08-18T09:57:42.082Z</time>
      </trkpt>
      <trkpt lat="50.46467" lon="3.36728">
        <ele>18.07897</ele>
        <time>2020-08-18T09:57:45.650Z</time>
      </trkpt>
      <trkpt lat="50.46482" lon="3.36721">
        <ele>18.048</ele>
        <time>2020-08-18T09:57:47.848Z</time>
      </trkpt>
      <trkpt lat="50.46504" lon="3.36691">
        <ele>17.99074</ele>
        <time>2020-08-18T09:57:52.200Z</time>
      </trkpt>
      <trkpt lat="50.46543" lon="3.36611">
        <ele>17.865231</ele>
        <time>2020-08-18T09:58:01.188Z</time>
      </trkpt>
      <trkpt lat="50.4655" lon="3.36586">
        <ele>17.830584</ele>
        <time>2020-08-18T09:58:03.457Z</time>
      </trkpt>
      <trkpt lat="50.46553" lon="3.36575">
        <ele>17.81638</ele>
        <time>2020-08-18T09:58:04.468Z</time>
      </trkpt>
      <trkpt lat="50.46636" lon="3.36231">
        <ele>17.088931</ele>
        <time>2020-08-18T09:58:35.909Z</time>
      </trkpt>
      <trkpt lat="50.46641" lon="3.36205">
        <ele>17.132847</ele>
        <time>2020-08-18T09:58:38.342Z</time>
      </trkpt>
      <trkpt lat="50.46643" lon="3.36196">
        <ele>17.148377</ele>
        <time>2020-08-18T09:58:39.616Z</time>
      </trkpt>
      <trkpt lat="50.46672" lon="3.36146">
        <ele>17.257903</ele>
        <time>2020-08-18T09:58:46.549Z</time>
      </trkpt>
      <trkpt lat="50.46734" lon="3.36072">
        <ele>17.453997</ele>
        <time>2020-08-18T09:58:59.764Z</time>
      </trkpt>
      <trkpt lat="50.46856" lon="3.35927">
        <ele>18.223677</ele>
        <time>2020-08-18T09:59:26.076Z</time>
      </trkpt>
      <trkpt lat="50.46894" lon="3.35886">
        <ele>18.39474</ele>
        <time>2020-08-18T09:59:33.450Z</time>
      </trkpt>
      <trkpt lat="50.46912" lon="3.35871">
        <ele>18.387902</ele>
        <time>2020-08-18T09:59:36.494Z</time>
      </trkpt>
      <trkpt lat="50.46936" lon="3.35855">
        <ele>18.37924</ele>
        <time>2020-08-18T09:59:40.430Z</time>
      </trkpt>
      <trkpt lat="50.46998" lon="3.35811">
        <ele>18.356004</ele>
        <time>2020-08-18T09:59:50.484Z</time>
      </trkpt>
      <trkpt lat="50.47032" lon="3.35772">
        <ele>18.342066</ele>
        <time>2020-08-18T09:59:56.262Z</time>
      </trkpt>
      <trkpt lat="50.47114" lon="3.35632">
        <ele>18.099482</ele>
        <time>2020-08-18T10:00:12.887Z</time>
      </trkpt>
      <trkpt lat="50.47189" lon="3.35539">
        <ele>18.019445</ele>
        <time>2020-08-18T10:00:26.736Z</time>
      </trkpt>
      <trkpt lat="50.4722" lon="3.35499">
        <ele>18.130061</ele>
        <time>2020-08-18T10:00:32.875Z</time>
      </trkpt>
      <trkpt lat="50.47243" lon="3.35471">
        <ele>18.211365</ele>
        <time>2020-08-18T10:00:37.494Z</time>
      </trkpt>
      <trkpt lat="50.47273" lon="3.35442">
        <ele>18.309018</ele>
        <time>2020-08-18T10:00:43.179Z</time>
      </trkpt>
      <trkpt lat="50.47292" lon="3.35427">
        <ele>18.368146</ele>
        <time>2020-08-18T10:00:46.714Z</time>
      </trkpt>
      <trkpt lat="50.47326" lon="3.35407">
        <ele>18.507719</ele>
        <time>2020-08-18T10:00:53.118Z</time>
      </trkpt>
      <trkpt lat="50.47352" lon="3.35393">
        <ele>18.7032</ele>
        <time>2020-08-18T10:00:57.987Z</time>
      </trkpt>
      <trkpt lat="50.47409" lon="3.35345">
        <ele>19.166464</ele>
        <time>2020-08-18T10:01:09.852Z</time>
      </trkpt>
      <trkpt lat="50.47423" lon="3.35327">
        <ele>19.300136</ele>
        <time>2020-08-18T10:01:13.275Z</time>
      </trkpt>
      <trkpt lat="50.47442" lon="3.35289">
        <ele>19.523471</ele>
        <time>2020-08-18T10:01:18.619Z</time>
      </trkpt>
      <trkpt lat="50.47444" lon="3.35285">
        <ele>19.545519</ele>
        <time>2020-08-18T10:01:19.317Z</time>
      </trkpt>
      <trkpt lat="50.47454" lon="3.3526">
        <ele>19.680133</ele>
        <time>2020-08-18T10:01:22.396Z</time>
      </trkpt>
      <trkpt lat="50.47468" lon="3.35217">
        <ele>19.843359</ele>
        <time>2020-08-18T10:01:27.805Z</time>
      </trkpt>
      <trkpt lat="50.4748" lon="3.35192">
        <ele>19.933507</ele>
        <time>2020-08-18T10:01:31.101Z</time>
      </trkpt>
      <trkpt lat="50.47498" lon="3.35165">
        <ele>20.047445</ele>
        <time>2020-08-18T10:01:35.293Z</time>
      </trkpt>
      <trkpt lat="50.4752" lon="3.35136">
        <ele>20.178599</ele>
        <time>2020-08-18T10:01:40.250Z</time>
      </trkpt>
      <trkpt lat="50.47521" lon="3.35135">
        <ele>20.182388</ele>
        <time>2020-08-18T10:01:40.332Z</time>
      </trkpt>
      <trkpt lat="50.47545" lon="3.35103">
        <ele>20.326894</ele>
        <time>2020-08-18T10:01:45.762Z</time>
      </trkpt>
      <trkpt lat="50.47678" lon="3.34895">
        <ele>20.845158</ele>
        <time>2020-08-18T10:02:14.943Z</time>
      </trkpt>
      <trkpt lat="50.47729" lon="3.34746">
        <ele>21.213953</ele>
        <time>2020-08-18T10:02:32.329Z</time>
      </trkpt>
      <trkpt lat="50.47745" lon="3.34702">
        <ele>21.35327</ele>
        <time>2020-08-18T10:02:37.637Z</time>
      </trkpt>
      <trkpt lat="50.4778" lon="3.34614">
        <ele>21.643206</ele>
        <time>2020-08-18T10:02:48.856Z</time>
      </trkpt>
      <trkpt lat="50.47812" lon="3.34585">
        <ele>21.845636</ele>
        <time>2020-08-18T10:02:55.049Z</time>
      </trkpt>
      <trkpt lat="50.47892" lon="3.34562">
        <ele>22.383634</ele>
        <time>2020-08-18T10:03:09.081Z</time>
      </trkpt>
      <trkpt lat="50.47917" lon="3.34547">
        <ele>22.564832</ele>
        <time>2020-08-18T10:03:13.972Z</time>
      </trkpt>
      <trkpt lat="50.47955" lon="3.34464">
        <ele>23.020668</ele>
        <time>2020-08-18T10:03:25.670Z</time>
      </trkpt>
      <trkpt lat="50.4797" lon="3.3443">
        <ele>23.24849</ele>
        <time>2020-08-18T10:03:30.474Z</time>
      </trkpt>
      <trkpt lat="50.48003" lon="3.3436">
        <ele>23.72095</ele>
        <time>2020-08-18T10:03:40.445Z</time>
      </trkpt>
      <trkpt lat="50.48067" lon="3.34233">
        <ele>24.599726</ele>
        <time>2020-08-18T10:03:59.306Z</time>
      </trkpt>
      <trkpt lat="50.48126" lon="3.34153">
        <ele>25.276403</ele>
        <time>2020-08-18T10:04:13.755Z</time>
      </trkpt>
      <trkpt lat="50.48139" lon="3.34124">
        <ele>25.473616</ele>
        <time>2020-08-18T10:04:17.908Z</time>
      </trkpt>
      <trkpt lat="50.48158" lon="3.34073">
        <ele>25.79577</ele>
        <time>2020-08-18T10:04:24.843Z</time>
      </trkpt>
      <trkpt lat="50.48192" lon="3.34023">
        <ele>26.131984</ele>
        <time>2020-08-18T10:04:33.403Z</time>
      </trkpt>
      <trkpt lat="50.48233" lon="3.33922">
        <ele>26.571248</ele>
        <time>2020-08-18T10:04:46.865Z</time>
      </trkpt>
      <trkpt lat="50.4826" lon="3.33874">
        <ele>26.803521</ele>
        <time>2020-08-18T10:04:53.610Z</time>
      </trkpt>
      <trkpt lat="50.48272" lon="3.33877">
        <ele>26.876845</ele>
        <time>2020-08-18T10:04:56.293Z</time>
      </trkpt>
      <trkpt lat="50.48289" lon="3.33874">
        <ele>26.971068</ele>
        <time>2020-08-18T10:04:59.809Z</time>
      </trkpt>
      <trkpt lat="50.4836" lon="3.33825">
        <ele>27.209667</ele>
        <time>2020-08-18T10:05:16.275Z</time>
      </trkpt>
      <trkpt lat="50.48408" lon="3.33854">
        <ele>27.341573</ele>
        <time>2020-08-18T10:05:26.906Z</time>
      </trkpt>
      <trkpt lat="50.4846" lon="3.33784">
        <ele>27.536496</ele>
        <time>2020-08-18T10:05:41.484Z</time>
      </trkpt>
      <trkpt lat="50.48474" lon="3.33775">
        <ele>27.621857</ele>
        <time>2020-08-18T10:05:44.745Z</time>
      </trkpt>
      <trkpt lat="50.48513" lon="3.33773">
        <ele>27.847145</ele>
        <time>2020-08-18T10:05:53.575Z</time>
      </trkpt>
      <trkpt lat="50.48524" lon="3.33765">
        <ele>27.917909</ele>
        <time>2020-08-18T10:05:56.394Z</time>
      </trkpt>
      <trkpt lat="50.48584" lon="3.33645">
        <ele>28.474126</ele>
        <time>2020-08-18T10:06:18.891Z</time>
      </trkpt>
      <trkpt lat="50.4863" lon="3.33592">
        <ele>28.540691</ele>
        <time>2020-08-18T10:06:31.252Z</time>
      </trkpt>
      <trkpt lat="50.48639" lon="3.33583">
        <ele>28.541562</ele>
        <time>2020-08-18T10:06:33.850Z</time>
      </trkpt>
      <trkpt lat="50.48647" lon="3.33573">
        <ele>28.542355</ele>
        <time>2020-08-18T10:06:35.840Z</time>
      </trkpt>
      <trkpt lat="50.48666" lon="3.33568">
        <ele>28.543819</ele>
        <time>2020-08-18T10:06:39.792Z</time>
      </trkpt>
      <trkpt lat="50.48789" lon="3.33597">
        <ele>28.448456</ele>
        <time>2020-08-18T10:07:03.725Z</time>
      </trkpt>
      <trkpt lat="50.48873" lon="3.33684">
        <ele>28.119281</ele>
        <time>2020-08-18T10:07:22.359Z</time>
      </trkpt>
      <trkpt lat="50.48889" lon="3.33713">
        <ele>28.039079</ele>
        <time>2020-08-18T10:07:27.149Z</time>
      </trkpt>
      <trkpt lat="50.48923" lon="3.33779">
        <ele>28.004707</ele>
        <time>2020-08-18T10:07:37.921Z</time>
      </trkpt>
      <trkpt lat="50.48938" lon="3.33794">
        <ele>28.029763</ele>
        <time>2020-08-18T10:07:41.610Z</time>
      </trkpt>
      <trkpt lat="50.48998" lon="3.33818">
        <ele>28.115526</ele>
        <time>2020-08-18T10:07:54.390Z</time>
      </trkpt>
      <trkpt lat="50.4901" lon="3.33832">
        <ele>28.136933</ele>
        <time>2020-08-18T10:07:57.614Z</time>
      </trkpt>
      <trkpt lat="50.49035" lon="3.33914">
        <ele>28.223057</ele>
        <time>2020-08-18T10:08:10.213Z</time>
      </trkpt>
      <trkpt lat="50.4906" lon="3.3396">
        <ele>28.335434</ele>
        <time>2020-08-18T10:08:18.630Z</time>
      </trkpt>
      <trkpt lat="50.49104" lon="3.34015">
        <ele>28.498422</ele>
        <time>2020-08-18T10:08:30.523Z</time>
      </trkpt>
      <trkpt lat="50.49112" lon="3.34043">
        <ele>28.555556</ele>
        <time>2020-08-18T10:08:34.668Z</time>
      </trkpt>
      <trkpt lat="50.49081" lon="3.34171">
        <ele>28.783173</ele>
        <time>2020-08-18T10:08:53.297Z</time>
      </trkpt>
      <trkpt lat="50.49083" lon="3.34223">
        <ele>28.841674</ele>
        <time>2020-08-18T10:09:00.330Z</time>
      </trkpt>
      <trkpt lat="50.49093" lon="3.34251">
        <ele>28.877615</ele>
        <time>2020-08-18T10:09:04.647Z</time>
      </trkpt>
      <trkpt lat="50.49125" lon="3.34286">
        <ele>28.946721</ele>
        <time>2020-08-18T10:09:12.871Z</time>
      </trkpt>
      <trkpt lat="50.49142" lon="3.3432">
        <ele>28.994936</ele>
        <time>2020-08-18T10:09:18.500Z</time>
      </trkpt>
      <trkpt lat="50.49148" lon="3.34354">
        <ele>29.0358</ele>
        <time>2020-08-18T10:09:23.307Z</time>
      </trkpt>
      <trkpt lat="50.49155" lon="3.34527">
        <ele>29.079445</ele>
        <time>2020-08-18T10:09:45.636Z</time>
      </trkpt>
      <trkpt lat="50.49156" lon="3.34547">
        <ele>29.082254</ele>
        <time>2020-08-18T10:09:48.170Z</time>
      </trkpt>
      <trkpt lat="50.49143" lon="3.34547">
        <ele>29.085112</ele>
        <time>2020-08-18T10:09:50.135Z</time>
      </trkpt>
      <trkpt lat="50.49133" lon="3.34546">
        <ele>29.087227</ele>
        <time>2020-08-18T10:09:51.595Z</time>
      </trkpt>
      <trkpt lat="50.49125" lon="3.34547">
        <ele>29.089021</ele>
        <time>2020-08-18T10:09:52.781Z</time>
      </trkpt>
      <trkpt lat="50.4911" lon="3.34552">
        <ele>29.092194</ele>
        <time>2020-08-18T10:09:54.884Z</time>
      </trkpt>
      <trkpt lat="50.49031" lon="3.34593">
        <ele>29.013802</ele>
        <time>2020-08-18T10:10:07.347Z</time>
      </trkpt>
      <trkpt lat="50.48937" lon="3.34658">
        <ele>28.8695</ele>
        <time>2020-08-18T10:10:22.116Z</time>
      </trkpt>
      <trkpt lat="50.48931" lon="3.3467">
        <ele>28.854826</ele>
        <time>2020-08-18T10:10:23.510Z</time>
      </trkpt>
      <trkpt lat="50.48925" lon="3.34694">
        <ele>28.793226</ele>
        <time>2020-08-18T10:10:25.794Z</time>
      </trkpt>
      <trkpt lat="50.48921" lon="3.3472">
        <ele>28.695944</ele>
        <time>2020-08-18T10:10:27.970Z</time>
      </trkpt>
      <trkpt lat="50.48914" lon="3.34745">
        <ele>28.597185</ele>
        <time>2020-08-18T10:10:30.269Z</time>
      </trkpt>
      <trkpt lat="50.48912" lon="3.3475">
        <ele>28.572659</ele>
        <time>2020-08-18T10:10:30.820Z</time>
      </trkpt>
      <trkpt lat="50.48899" lon="3.34771">
        <ele>28.469639</ele>
        <time>2020-08-18T10:10:33.130Z</time>
      </trkpt>
      <trkpt lat="50.48893" lon="3.34787">
        <ele>28.40065</ele>
        <time>2020-08-18T10:10:34.750Z</time>
      </trkpt>
      <trkpt lat="50.4889" lon="3.34825">
        <ele>28.259765</ele>
        <time>2020-08-18T10:10:37.920Z</time>
      </trkpt>
      <trkpt lat="50.48889" lon="3.3483">
        <ele>28.242301</ele>
        <time>2020-08-18T10:10:38.319Z</time>
      </trkpt>
      <trkpt lat="50.48886" lon="3.34877">
        <ele>28.068706</ele>
        <time>2020-08-18T10:10:42.274Z</time>
      </trkpt>
      <trkpt lat="50.48885" lon="3.34894">
        <ele>28.006082</ele>
        <time>2020-08-18T10:10:43.689Z</time>
      </trkpt>
      <trkpt lat="50.48883" lon="3.34952">
        <ele>27.792069</ele>
        <time>2020-08-18T10:10:48.455Z</time>
      </trkpt>
      <trkpt lat="50.48888" lon="3.35017">
        <ele>27.567886</ele>
        <time>2020-08-18T10:10:53.729Z</time>
      </trkpt>
      <trkpt lat="50.489" lon="3.35149">
        <ele>27.106662</ele>
        <time>2020-08-18T10:11:04.709Z</time>
      </trkpt>
      <trkpt lat="50.48898" lon="3.35161">
        <ele>27.062002</ele>
        <time>2020-08-18T10:11:05.788Z</time>
      </trkpt>
      <trkpt lat="50.48903" lon="3.35165">
        <ele>27.03292</ele>
        <time>2020-08-18T10:11:06.497Z</time>
      </trkpt>
      <trkpt lat="50.48913" lon="3.35188">
        <ele>26.937279</ele>
        <time>2020-08-18T10:11:09.021Z</time>
      </trkpt>
      <trkpt lat="50.48924" lon="3.3524">
        <ele>26.813763</ele>
        <time>2020-08-18T10:11:13.989Z</time>
      </trkpt>
      <trkpt lat="50.48934" lon="3.35284">
        <ele>26.779337</ele>
        <time>2020-08-18T10:11:18.274Z</time>
      </trkpt>
      <trkpt lat="50.48943" lon="3.3535">
        <ele>26.730167</ele>
        <time>2020-08-18T10:11:24.627Z</time>
      </trkpt>
      <trkpt lat="50.48948" lon="3.35446">
        <ele>26.659832</ele>
        <time>2020-08-18T10:11:33.864Z</time>
      </trkpt>
      <trkpt lat="50.48982" lon="3.35604">
        <ele>26.175689</ele>
        <time>2020-08-18T10:11:48.625Z</time>
      </trkpt>
      <trkpt lat="50.48984" lon="3.35623">
        <ele>26.10283</ele>
        <time>2020-08-18T10:11:50.779Z</time>
      </trkpt>
      <trkpt lat="50.48986" lon="3.35647">
        <ele>26.011358</ele>
        <time>2020-08-18T10:11:52.505Z</time>
      </trkpt>
      <trkpt lat="50.48997" lon="3.3574">
        <ele>25.654804</ele>
        <time>2020-08-18T10:12:00.303Z</time>
      </trkpt>
      <trkpt lat="50.48999" lon="3.35751">
        <ele>25.614758</ele>
        <time>2020-08-18T10:12:00.992Z</time>
      </trkpt>
      <trkpt lat="50.49003" lon="3.35768">
        <ele>25.535231</ele>
        <time>2020-08-18T10:12:02.366Z</time>
      </trkpt>
      <trkpt lat="50.49012" lon="3.35798">
        <ele>25.334423</ele>
        <time>2020-08-18T10:12:05.082Z</time>
      </trkpt>
      <trkpt lat="50.49043" lon="3.35895">
        <ele>24.6767</ele>
        <time>2020-08-18T10:12:13.329Z</time>
      </trkpt>
      <trkpt lat="50.49063" lon="3.35948">
        <ele>24.303226</ele>
        <time>2020-08-18T10:12:18.047Z</time>
      </trkpt>
      <trkpt lat="50.49072" lon="3.35962">
        <ele>24.182342</ele>
        <time>2020-08-18T10:12:19.546Z</time>
      </trkpt>
      <trkpt lat="50.49101" lon="3.35996">
        <ele>23.846469</ele>
        <time>2020-08-18T10:12:24.354Z</time>
      </trkpt>
      <trkpt lat="50.49134" lon="3.36041">
        <ele>23.78593</ele>
        <time>2020-08-18T10:12:30.508Z</time>
      </trkpt>
      <trkpt lat="50.49159" lon="3.36089">
        <ele>23.731559</ele>
        <time>2020-08-18T10:12:36.343Z</time>
      </trkpt>
      <trkpt lat="50.49182" lon="3.36169">
        <ele>23.653807</ele>
        <time>2020-08-18T10:12:44.730Z</time>
      </trkpt>
      <trkpt lat="50.49198" lon="3.36216">
        <ele>23.607128</ele>
        <time>2020-08-18T10:12:49.819Z</time>
      </trkpt>
      <trkpt lat="50.49208" lon="3.3624">
        <ele>23.579955</ele>
        <time>2020-08-18T10:12:52.515Z</time>
      </trkpt>
      <trkpt lat="50.4921" lon="3.36245">
        <ele>23.573511</ele>
        <time>2020-08-18T10:12:53.125Z</time>
      </trkpt>
      <trkpt lat="50.49227" lon="3.36287">
        <ele>23.523401</ele>
        <time>2020-08-18T10:12:57.788Z</time>
      </trkpt>
      <trkpt lat="50.49231" lon="3.36297">
        <ele>23.511667</ele>
        <time>2020-08-18T10:12:58.892Z</time>
      </trkpt>
      <trkpt lat="50.4924" lon="3.36327">
        <ele>23.478109</ele>
        <time>2020-08-18T10:13:01.923Z</time>
      </trkpt>
      <trkpt lat="50.49248" lon="3.36396">
        <ele>23.408575</ele>
        <time>2020-08-18T10:13:08.279Z</time>
      </trkpt>
      <trkpt lat="50.4925" lon="3.36413">
        <ele>23.390382</ele>
        <time>2020-08-18T10:13:09.901Z</time>
      </trkpt>
      <trkpt lat="50.49247" lon="3.36462">
        <ele>23.341315</ele>
        <time>2020-08-18T10:13:14.188Z</time>
      </trkpt>
      <trkpt lat="50.49221" lon="3.36579">
        <ele>22.949225</ele>
        <time>2020-08-18T10:13:24.771Z</time>
      </trkpt>
      <trkpt lat="50.49219" lon="3.36611">
        <ele>22.826396</ele>
        <time>2020-08-18T10:13:27.587Z</time>
      </trkpt>
      <trkpt lat="50.49223" lon="3.36651">
        <ele>22.673242</ele>
        <time>2020-08-18T10:13:31.067Z</time>
      </trkpt>
      <trkpt lat="50.49245" lon="3.36688">
        <ele>22.484184</ele>
        <time>2020-08-18T10:13:35.111Z</time>
      </trkpt>
      <trkpt lat="50.49303" lon="3.3676">
        <ele>21.914019</ele>
        <time>2020-08-18T10:13:44.188Z</time>
      </trkpt>
      <trkpt lat="50.49331" lon="3.36811">
        <ele>21.491816</ele>
        <time>2020-08-18T10:13:49.461Z</time>
      </trkpt>
      <trkpt lat="50.49345" lon="3.36846">
        <ele>21.241146</ele>
        <time>2020-08-18T10:13:52.579Z</time>
      </trkpt>
      <trkpt lat="50.49351" lon="3.3687">
        <ele>21.078248</ele>
        <time>2020-08-18T10:13:54.651Z</time>
      </trkpt>
      <trkpt lat="50.49362" lon="3.36947">
        <ele>20.587171</ele>
        <time>2020-08-18T10:14:00.950Z</time>
      </trkpt>
      <trkpt lat="50.49355" lon="3.37038">
        <ele>20.159595</ele>
        <time>2020-08-18T10:14:08.076Z</time>
      </trkpt>
      <trkpt lat="50.4935" lon="3.37067">
        <ele>20.029149</ele>
        <time>2020-08-18T10:14:10.420Z</time>
      </trkpt>
      <trkpt lat="50.49349" lon="3.37072">
        <ele>20.006573</ele>
        <time>2020-08-18T10:14:10.874Z</time>
      </trkpt>
      <trkpt lat="50.49348" lon="3.37084">
        <ele>19.953305</ele>
        <time>2020-08-18T10:14:11.832Z</time>
      </trkpt>
      <trkpt lat="50.49347" lon="3.37099">
        <ele>19.886819</ele>
        <time>2020-08-18T10:14:13.069Z</time>
      </trkpt>
      <trkpt lat="50.49349" lon="3.37108">
        <ele>19.845985</ele>
        <time>2020-08-18T10:14:13.864Z</time>
      </trkpt>
      <trkpt lat="50.49354" lon="3.37116">
        <ele>19.799263</ele>
        <time>2020-08-18T10:14:14.756Z</time>
      </trkpt>
      <trkpt lat="50.4936" lon="3.37128">
        <ele>19.731449</ele>
        <time>2020-08-18T10:14:16.129Z</time>
      </trkpt>
      <trkpt lat="50.49369" lon="3.37136">
        <ele>19.664149</ele>
        <time>2020-08-18T10:14:17.436Z</time>
      </trkpt>
      <trkpt lat="50.49404" lon="3.37162">
        <ele>19.398036</ele>
        <time>2020-08-18T10:14:22.634Z</time>
      </trkpt>
      <trkpt lat="50.49515" lon="3.37246">
        <ele>19.077371</ele>
        <time>2020-08-18T10:14:39.444Z</time>
      </trkpt>
      <trkpt lat="50.49526" lon="3.37264">
        <ele>19.047975</ele>
        <time>2020-08-18T10:14:41.707Z</time>
      </trkpt>
      <trkpt lat="50.49533" lon="3.37286">
        <ele>19.01965</ele>
        <time>2020-08-18T10:14:43.994Z</time>
      </trkpt>
      <trkpt lat="50.49533" lon="3.3731">
        <ele>18.993077</ele>
        <time>2020-08-18T10:14:46.192Z</time>
      </trkpt>
      <trkpt lat="50.49498" lon="3.37572">
        <ele>19.285126</ele>
        <time>2020-08-18T10:15:13.249Z</time>
      </trkpt>
      <trkpt lat="50.49501" lon="3.37593">
        <ele>19.317992</ele>
        <time>2020-08-18T10:15:15.404Z</time>
      </trkpt>
      <trkpt lat="50.49512" lon="3.37613">
        <ele>19.358986</ele>
        <time>2020-08-18T10:15:18.126Z</time>
      </trkpt>
      <trkpt lat="50.49572" lon="3.37664">
        <ele>19.527923</ele>
        <time>2020-08-18T10:15:29.047Z</time>
      </trkpt>
      <trkpt lat="50.4971" lon="3.37769">
        <ele>19.919293</ele>
        <time>2020-08-18T10:15:53.354Z</time>
      </trkpt>
      <trkpt lat="50.49758" lon="3.37805">
        <ele>20.072174</ele>
        <time>2020-08-18T10:16:01.766Z</time>
      </trkpt>
      <trkpt lat="50.49793" lon="3.37838">
        <ele>20.189615</ele>
        <time>2020-08-18T10:16:08.253Z</time>
      </trkpt>
      <trkpt lat="50.49823" lon="3.3788">
        <ele>20.305981</ele>
        <time>2020-08-18T10:16:14.737Z</time>
      </trkpt>
      <trkpt lat="50.49883" lon="3.38016">
        <ele>20.760716</ele>
        <time>2020-08-18T10:16:31.807Z</time>
      </trkpt>
      <trkpt lat="50.49913" lon="3.3806">
        <ele>20.945326</ele>
        <time>2020-08-18T10:16:38.701Z</time>
      </trkpt>
      <trkpt lat="50.5" lon="3.38127">
        <ele>21.521487</ele>
        <time>2020-08-18T10:16:55.728Z</time>
      </trkpt>
      <trkpt lat="50.50094" lon="3.38188">
        <ele>22.260396</ele>
        <time>2020-08-18T10:17:14.163Z</time>
      </trkpt>
      <trkpt lat="50.5032" lon="3.38335">
        <ele>23.038648</ele>
        <time>2020-08-18T10:17:54.508Z</time>
      </trkpt>
      <trkpt lat="50.50279" lon="3.38463">
        <ele>22.709701</ele>
        <time>2020-08-18T10:18:11.196Z</time>
      </trkpt>
      <trkpt lat="50.50255" lon="3.38548">
        <ele>22.524179</ele>
        <time>2020-08-18T10:18:21.960Z</time>
      </trkpt>
      <trkpt lat="50.50229" lon="3.38639">
        <ele>22.547581</ele>
        <time>2020-08-18T10:18:33.602Z</time>
      </trkpt>
      <trkpt lat="50.50218" lon="3.3867">
        <ele>22.556172</ele>
        <time>2020-08-18T10:18:38.066Z</time>
      </trkpt>
      <trkpt lat="50.50275" lon="3.38685">
        <ele>22.577814</ele>
        <time>2020-08-18T10:18:50.385Z</time>
      </trkpt>
      <trkpt lat="50.50344" lon="3.38684">
        <ele>23.330172</ele>
        <time>2020-08-18T10:19:07.034Z</time>
      </trkpt>
      <trkpt lat="50.50438" lon="3.38666">
        <ele>25.029866</ele>
        <time>2020-08-18T10:19:34.508Z</time>
      </trkpt>
      <trkpt lat="50.50512" lon="3.38666">
        <ele>26.235956</ele>
        <time>2020-08-18T10:19:55.754Z</time>
      </trkpt>
      <trkpt lat="50.50542" lon="3.38667">
        <ele>26.662429</ele>
        <time>2020-08-18T10:20:04.259Z</time>
      </trkpt>
      <trkpt lat="50.50556" lon="3.38737">
        <ele>27.315843</ele>
        <time>2020-08-18T10:20:16.528Z</time>
      </trkpt>
      <trkpt lat="50.50568" lon="3.38775">
        <ele>27.693767</ele>
        <time>2020-08-18T10:20:23.337Z</time>
      </trkpt>
      <trkpt lat="50.50588" lon="3.38839">
        <ele>28.328021</ele>
        <time>2020-08-18T10:20:33.879Z</time>
      </trkpt>
      <trkpt lat="50.5063" lon="3.3897">
        <ele>28.732765</ele>
        <time>2020-08-18T10:20:53.542Z</time>
      </trkpt>
      <trkpt lat="50.50636" lon="3.38986">
        <ele>28.782044</ele>
        <time>2020-08-18T10:20:56.001Z</time>
      </trkpt>
      <trkpt lat="50.50647" lon="3.3902">
        <ele>28.884856</ele>
        <time>2020-08-18T10:21:00.998Z</time>
      </trkpt>
      <trkpt lat="50.50665" lon="3.3903">
        <ele>28.967617</ele>
        <time>2020-08-18T10:21:05.312Z</time>
      </trkpt>
      <trkpt lat="50.50674" lon="3.39035">
        <ele>29.006521</ele>
        <time>2020-08-18T10:21:07.338Z</time>
      </trkpt>
      <trkpt lat="50.5068" lon="3.3906">
        <ele>29.079012</ele>
        <time>2020-08-18T10:21:11.180Z</time>
      </trkpt>
      <trkpt lat="50.50691" lon="3.391">
        <ele>29.325435</ele>
        <time>2020-08-18T10:21:17.713Z</time>
      </trkpt>
      <trkpt lat="50.5072" lon="3.39164">
        <ele>29.822194</ele>
        <time>2020-08-18T10:21:29.970Z</time>
      </trkpt>
      <trkpt lat="50.50729" lon="3.39204">
        <ele>30.089157</ele>
        <time>2020-08-18T10:21:36.703Z</time>
      </trkpt>
      <trkpt lat="50.50734" lon="3.39245">
        <ele>30.354667</ele>
        <time>2020-08-18T10:21:43.427Z</time>
      </trkpt>
      <trkpt lat="50.50735" lon="3.39265">
        <ele>30.482592</ele>
        <time>2020-08-18T10:21:46.630Z</time>
      </trkpt>
      <trkpt lat="50.50734" lon="3.39277">
        <ele>30.557071</ele>
        <time>2020-08-18T10:21:48.462Z</time>
      </trkpt>
      <trkpt lat="50.50742" lon="3.39286">
        <ele>30.656478</ele>
        <time>2020-08-18T10:21:50.865Z</time>
      </trkpt>
      <trkpt lat="50.50768" lon="3.39316">
        <ele>30.936919</ele>
        <time>2020-08-18T10:21:58.477Z</time>
      </trkpt>
      <trkpt lat="50.50791" lon="3.39343">
        <ele>31.088417</ele>
        <time>2020-08-18T10:22:05.550Z</time>
      </trkpt>
      <trkpt lat="50.50803" lon="3.39403">
        <ele>31.294937</ele>
        <time>2020-08-18T10:22:15.197Z</time>
      </trkpt>
      <trkpt lat="50.50805" lon="3.3942">
        <ele>31.350646</ele>
        <time>2020-08-18T10:22:17.687Z</time>
      </trkpt>
      <trkpt lat="50.50827" lon="3.39557">
        <ele>31.813936</ele>
        <time>2020-08-18T10:22:36.919Z</time>
      </trkpt>
      <trkpt lat="50.50829" lon="3.39568">
        <ele>31.806819</ele>
        <time>2020-08-18T10:22:38.433Z</time>
      </trkpt>
      <trkpt lat="50.50831" lon="3.39579">
        <ele>31.784724</ele>
        <time>2020-08-18T10:22:39.794Z</time>
      </trkpt>
      <trkpt lat="50.50835" lon="3.39605">
        <ele>31.730548</ele>
        <time>2020-08-18T10:22:43.123Z</time>
      </trkpt>
      <trkpt lat="50.50844" lon="3.3965">
        <ele>31.637936</ele>
        <time>2020-08-18T10:22:48.885Z</time>
      </trkpt>
      <trkpt lat="50.50848" lon="3.39702">
        <ele>31.535725</ele>
        <time>2020-08-18T10:22:55.308Z</time>
      </trkpt>
      <trkpt lat="50.50848" lon="3.39711">
        <ele>31.518337</ele>
        <time>2020-08-18T10:22:56.298Z</time>
      </trkpt>
      <trkpt lat="50.50845" lon="3.3981">
        <ele>31.321584</ele>
        <time>2020-08-18T10:23:08.322Z</time>
      </trkpt>
      <trkpt lat="50.50843" lon="3.39878">
        <ele>31.12807</ele>
        <time>2020-08-18T10:23:16.121Z</time>
      </trkpt>
      <trkpt lat="50.50841" lon="3.40038">
        <ele>30.575305</ele>
        <time>2020-08-18T10:23:34.961Z</time>
      </trkpt>
      <trkpt lat="50.50845" lon="3.40083">
        <ele>30.417726</ele>
        <time>2020-08-18T10:23:40.308Z</time>
      </trkpt>
      <trkpt lat="50.50855" lon="3.40122">
        <ele>30.264299</ele>
        <time>2020-08-18T10:23:45.265Z</time>
      </trkpt>
      <trkpt lat="50.50877" lon="3.40191">
        <ele>29.912334</ele>
        <time>2020-08-18T10:23:54.209Z</time>
      </trkpt>
      <trkpt lat="50.50896" lon="3.40248">
        <ele>29.619137</ele>
        <time>2020-08-18T10:24:01.577Z</time>
      </trkpt>
      <trkpt lat="50.50925" lon="3.40335">
        <ele>29.169999</ele>
        <time>2020-08-18T10:24:12.721Z</time>
      </trkpt>
      <trkpt lat="50.5111" lon="3.40911">
        <ele>25.837311</ele>
        <time>2020-08-18T10:25:25.650Z</time>
      </trkpt>
      <trkpt lat="50.5116" lon="3.41081">
        <ele>25.028368</ele>
        <time>2020-08-18T10:25:46.954Z</time>
      </trkpt>
      <trkpt lat="50.51195" lon="3.412">
        <ele>24.941108</ele>
        <time>2020-08-18T10:26:03.157Z</time>
      </trkpt>
      <trkpt lat="50.51209" lon="3.41251">
        <ele>25.048638</ele>
        <time>2020-08-18T10:26:08.898Z</time>
      </trkpt>
      <trkpt lat="50.5122" lon="3.41303">
        <ele>25.154041</ele>
        <time>2020-08-18T10:26:14.783Z</time>
      </trkpt>
      <trkpt lat="50.51227" lon="3.4133">
        <ele>25.210062</ele>
        <time>2020-08-18T10:26:17.600Z</time>
      </trkpt>
      <trkpt lat="50.51233" lon="3.41346">
        <ele>25.246121</ele>
        <time>2020-08-18T10:26:20.001Z</time>
      </trkpt>
      <trkpt lat="50.5129" lon="3.41469">
        <ele>25.871981</ele>
        <time>2020-08-18T10:26:37.141Z</time>
      </trkpt>
      <trkpt lat="50.51298" lon="3.41484">
        <ele>25.97012</ele>
        <time>2020-08-18T10:26:39.808Z</time>
      </trkpt>
      <trkpt lat="50.51305" lon="3.41501">
        <ele>26.076702</ele>
        <time>2020-08-18T10:26:42.186Z</time>
      </trkpt>
      <trkpt lat="50.5132" lon="3.41534">
        <ele>26.28414</ele>
        <time>2020-08-18T10:26:47.335Z</time>
      </trkpt>
      <trkpt lat="50.51344" lon="3.41586">
        <ele>26.612019</ele>
        <time>2020-08-18T10:26:54.662Z</time>
      </trkpt>
      <trkpt lat="50.51353" lon="3.41606">
        <ele>26.739452</ele>
        <time>2020-08-18T10:26:57.426Z</time>
      </trkpt>
      <trkpt lat="50.51355" lon="3.41611">
        <ele>26.769784</ele>
        <time>2020-08-18T10:26:58.051Z</time>
      </trkpt>
      <trkpt lat="50.51359" lon="3.41622">
        <ele>26.785397</ele>
        <time>2020-08-18T10:26:59.328Z</time>
      </trkpt>
      <trkpt lat="50.51361" lon="3.41627">
        <ele>26.78269</ele>
        <time>2020-08-18T10:26:59.936Z</time>
      </trkpt>
      <trkpt lat="50.51364" lon="3.41637">
        <ele>26.777353</ele>
        <time>2020-08-18T10:27:01.117Z</time>
      </trkpt>
      <trkpt lat="50.51365" lon="3.41639">
        <ele>26.776109</ele>
        <time>2020-08-18T10:27:01.409Z</time>
      </trkpt>
      <trkpt lat="50.51368" lon="3.4165">
        <ele>26.770538</ele>
        <time>2020-08-18T10:27:02.633Z</time>
      </trkpt>
      <trkpt lat="50.51369" lon="3.41656">
        <ele>26.767729</ele>
        <time>2020-08-18T10:27:03.258Z</time>
      </trkpt>
      <trkpt lat="50.51373" lon="3.41671">
        <ele>26.760024</ele>
        <time>2020-08-18T10:27:04.759Z</time>
      </trkpt>
      <trkpt lat="50.51375" lon="3.4168">
        <ele>26.755507</ele>
        <time>2020-08-18T10:27:05.689Z</time>
      </trkpt>
      <trkpt lat="50.51376" lon="3.41687">
        <ele>26.751863</ele>
        <time>2020-08-18T10:27:06.442Z</time>
      </trkpt>
      <trkpt lat="50.51378" lon="3.41703">
        <ele>26.744135</ele>
        <time>2020-08-18T10:27:08.025Z</time>
      </trkpt>
      <trkpt lat="50.51387" lon="3.41748">
        <ele>26.722244</ele>
        <time>2020-08-18T10:27:12.279Z</time>
      </trkpt>
      <trkpt lat="50.51404" lon="3.41783">
        <ele>26.701261</ele>
        <time>2020-08-18T10:27:16.234Z</time>
      </trkpt>
      <trkpt lat="50.51444" lon="3.41845">
        <ele>26.659589</ele>
        <time>2020-08-18T10:27:24.149Z</time>
      </trkpt>
      <trkpt lat="50.51449" lon="3.41853">
        <ele>26.618716</ele>
        <time>2020-08-18T10:27:24.995Z</time>
      </trkpt>
      <trkpt lat="50.51463" lon="3.41879">
        <ele>26.243373</ele>
        <time>2020-08-18T10:27:28.065Z</time>
      </trkpt>
      <trkpt lat="50.51467" lon="3.41892">
        <ele>26.076651</ele>
        <time>2020-08-18T10:27:29.250Z</time>
      </trkpt>
      <trkpt lat="50.51471" lon="3.41903">
        <ele>25.944051</ele>
        <time>2020-08-18T10:27:30.181Z</time>
      </trkpt>
      <trkpt lat="50.51477" lon="3.41933">
        <ele>25.593222</ele>
        <time>2020-08-18T10:27:32.778Z</time>
      </trkpt>
      <trkpt lat="50.51479" lon="3.41941">
        <ele>25.489205</ele>
        <time>2020-08-18T10:27:33.383Z</time>
      </trkpt>
      <trkpt lat="50.51481" lon="3.4195">
        <ele>25.389945</ele>
        <time>2020-08-18T10:27:33.994Z</time>
      </trkpt>
      <trkpt lat="50.51485" lon="3.41966">
        <ele>25.201748</ele>
        <time>2020-08-18T10:27:35.379Z</time>
      </trkpt>
      <trkpt lat="50.51492" lon="3.41986">
        <ele>24.949791</ele>
        <time>2020-08-18T10:27:37.104Z</time>
      </trkpt>
      <trkpt lat="50.51492" lon="3.41986">
        <ele>24.941299</ele>
        <time>2020-08-18T10:27:37.151Z</time>
      </trkpt>
      <trkpt lat="50.51494" lon="3.41991">
        <ele>24.879631</ele>
        <time>2020-08-18T10:27:37.508Z</time>
      </trkpt>
      <trkpt lat="50.51499" lon="3.42004">
        <ele>24.715184</ele>
        <time>2020-08-18T10:27:38.494Z</time>
      </trkpt>
      <trkpt lat="50.51507" lon="3.42024">
        <ele>24.449964</ele>
        <time>2020-08-18T10:27:40.280Z</time>
      </trkpt>
      <trkpt lat="50.51521" lon="3.42059">
        <ele>24.001597</ele>
        <time>2020-08-18T10:27:42.925Z</time>
      </trkpt>
      <trkpt lat="50.51522" lon="3.42067">
        <ele>23.909298</ele>
        <time>2020-08-18T10:27:43.518Z</time>
      </trkpt>
      <trkpt lat="50.51524" lon="3.42076">
        <ele>23.809986</ele>
        <time>2020-08-18T10:27:44.150Z</time>
      </trkpt>
      <trkpt lat="50.51525" lon="3.42082">
        <ele>23.733465</ele>
        <time>2020-08-18T10:27:44.608Z</time>
      </trkpt>
      <trkpt lat="50.51524" lon="3.42085">
        <ele>23.702494</ele>
        <time>2020-08-18T10:27:44.779Z</time>
      </trkpt>
      <trkpt lat="50.51524" lon="3.42087">
        <ele>23.671814</ele>
        <time>2020-08-18T10:27:44.948Z</time>
      </trkpt>
      <trkpt lat="50.51524" lon="3.42091">
        <ele>23.629726</ele>
        <time>2020-08-18T10:27:45.179Z</time>
      </trkpt>
      <trkpt lat="50.51525" lon="3.42095">
        <ele>23.587525</ele>
        <time>2020-08-18T10:27:45.409Z</time>
      </trkpt>
      <trkpt lat="50.51526" lon="3.42098">
        <ele>23.545448</ele>
        <time>2020-08-18T10:27:45.644Z</time>
      </trkpt>
      <trkpt lat="50.51529" lon="3.421">
        <ele>23.470262</ele>
        <time>2020-08-18T10:27:45.951Z</time>
      </trkpt>
      <trkpt lat="50.51531" lon="3.42102">
        <ele>23.379406</ele>
        <time>2020-08-18T10:27:46.262Z</time>
      </trkpt>
      <trkpt lat="50.51537" lon="3.42114">
        <ele>23.086613</ele>
        <time>2020-08-18T10:27:47.293Z</time>
      </trkpt>
      <trkpt lat="50.51541" lon="3.42124">
        <ele>22.857434</ele>
        <time>2020-08-18T10:27:48.104Z</time>
      </trkpt>
      <trkpt lat="50.51546" lon="3.4214">
        <ele>22.503755</ele>
        <time>2020-08-18T10:27:49.212Z</time>
      </trkpt>
      <trkpt lat="50.51559" lon="3.42188">
        <ele>21.499286</ele>
        <time>2020-08-18T10:27:52.613Z</time>
      </trkpt>
      <trkpt lat="50.51577" lon="3.42252">
        <ele>20.138808</ele>
        <time>2020-08-18T10:27:57.126Z</time>
      </trkpt>
      <trkpt lat="50.51598" lon="3.42329">
        <ele>18.516245</ele>
        <time>2020-08-18T10:28:02.615Z</time>
      </trkpt>
      <trkpt lat="50.516" lon="3.4234">
        <ele>18.301232</ele>
        <time>2020-08-18T10:28:03.308Z</time>
      </trkpt>
      <trkpt lat="50.516" lon="3.42352">
        <ele>18.062855</ele>
        <time>2020-08-18T10:28:04.068Z</time>
      </trkpt>
      <trkpt lat="50.51591" lon="3.42429">
        <ele>17.353698</ele>
        <time>2020-08-18T10:28:09.419Z</time>
      </trkpt>
      <trkpt lat="50.5159" lon="3.42448">
        <ele>17.182682</ele>
        <time>2020-08-18T10:28:10.728Z</time>
      </trkpt>
      <trkpt lat="50.51587" lon="3.42484">
        <ele>16.852793</ele>
        <time>2020-08-18T10:28:13.376Z</time>
      </trkpt>
      <trkpt lat="50.5155" lon="3.42874">
        <ele>14.824192</ele>
        <time>2020-08-18T10:28:46.362Z</time>
      </trkpt>
      <trkpt lat="50.51527" lon="3.43125">
        <ele>14.646631</ele>
        <time>2020-08-18T10:29:09.784Z</time>
      </trkpt>
      <trkpt lat="50.51526" lon="3.43141">
        <ele>14.641259</ele>
        <time>2020-08-18T10:29:11.340Z</time>
      </trkpt>
      <trkpt lat="50.51526" lon="3.43216">
        <ele>14.686277</ele>
        <time>2020-08-18T10:29:18.906Z</time>
      </trkpt>
      <trkpt lat="50.51531" lon="3.43248">
        <ele>14.774274</ele>
        <time>2020-08-18T10:29:22.311Z</time>
      </trkpt>
      <trkpt lat="50.51537" lon="3.43274">
        <ele>14.848494</ele>
        <time>2020-08-18T10:29:25.096Z</time>
      </trkpt>
      <trkpt lat="50.51545" lon="3.43295">
        <ele>14.913379</ele>
        <time>2020-08-18T10:29:27.651Z</time>
      </trkpt>
      <trkpt lat="50.51551" lon="3.43317">
        <ele>14.978685</ele>
        <time>2020-08-18T10:29:30.056Z</time>
      </trkpt>
      <trkpt lat="50.51559" lon="3.4334">
        <ele>15.049119</ele>
        <time>2020-08-18T10:29:32.871Z</time>
      </trkpt>
      <trkpt lat="50.51572" lon="3.43377">
        <ele>15.161473</ele>
        <time>2020-08-18T10:29:37.157Z</time>
      </trkpt>
      <trkpt lat="50.51679" lon="3.43556">
        <ele>15.913105</ele>
        <time>2020-08-18T10:30:04.750Z</time>
      </trkpt>
      <trkpt lat="50.51691" lon="3.43575">
        <ele>16.004183</ele>
        <time>2020-08-18T10:30:07.713Z</time>
      </trkpt>
      <trkpt lat="50.51685" lon="3.43587">
        <ele>16.053247</ele>
        <time>2020-08-18T10:30:09.843Z</time>
      </trkpt>
      <trkpt lat="50.51595" lon="3.43711">
        <ele>16.212041</ele>
        <time>2020-08-18T10:30:34.769Z</time>
      </trkpt>
      <trkpt lat="50.51579" lon="3.4378">
        <ele>16.149673</ele>
        <time>2020-08-18T10:30:43.784Z</time>
      </trkpt>
      <trkpt lat="50.51578" lon="3.43822">
        <ele>16.114034</ele>
        <time>2020-08-18T10:30:48.797Z</time>
      </trkpt>
      <trkpt lat="50.51583" lon="3.43897">
        <ele>16.042068</ele>
        <time>2020-08-18T10:30:57.952Z</time>
      </trkpt>
      <trkpt lat="50.51584" lon="3.43908">
        <ele>16.028831</ele>
        <time>2020-08-18T10:30:59.134Z</time>
      </trkpt>
      <trkpt lat="50.51595" lon="3.43999">
        <ele>15.911953</ele>
        <time>2020-08-18T10:31:10.464Z</time>
      </trkpt>
      <trkpt lat="50.51515" lon="3.44047">
        <ele>15.741403</ele>
        <time>2020-08-18T10:31:27.180Z</time>
      </trkpt>
      <trkpt lat="50.51475" lon="3.44086">
        <ele>15.753937</ele>
        <time>2020-08-18T10:31:36.983Z</time>
      </trkpt>
      <trkpt lat="50.51402" lon="3.44214">
        <ele>15.920008</ele>
        <time>2020-08-18T10:32:00.312Z</time>
      </trkpt>
      <trkpt lat="50.51392" lon="3.44233">
        <ele>15.943462</ele>
        <time>2020-08-18T10:32:03.505Z</time>
      </trkpt>
      <trkpt lat="50.51388" lon="3.44241">
        <ele>15.953387</ele>
        <time>2020-08-18T10:32:04.873Z</time>
      </trkpt>
      <trkpt lat="50.5134" lon="3.44349">
        <ele>15.886926</ele>
        <time>2020-08-18T10:32:21.908Z</time>
      </trkpt>
      <trkpt lat="50.51322" lon="3.4435">
        <ele>15.860362</ele>
        <time>2020-08-18T10:32:24.510Z</time>
      </trkpt>
      <trkpt lat="50.5119" lon="3.44403">
        <ele>15.644178</ele>
        <time>2020-08-18T10:32:43.313Z</time>
      </trkpt>
      <trkpt lat="50.51187" lon="3.44406">
        <ele>15.635483</ele>
        <time>2020-08-18T10:32:43.859Z</time>
      </trkpt>
      <trkpt lat="50.51116" lon="3.44468">
        <ele>15.473869</ele>
        <time>2020-08-18T10:32:55.193Z</time>
      </trkpt>
      <trkpt lat="50.51095" lon="3.44486">
        <ele>15.425125</ele>
        <time>2020-08-18T10:32:58.574Z</time>
      </trkpt>
      <trkpt lat="50.50731" lon="3.44802">
        <ele>15.619746</ele>
        <time>2020-08-18T10:34:01.204Z</time>
      </trkpt>
      <trkpt lat="50.50707" lon="3.44823">
        <ele>15.660018</ele>
        <time>2020-08-18T10:34:05.377Z</time>
      </trkpt>
      <trkpt lat="50.50673" lon="3.44871">
        <ele>15.727294</ele>
        <time>2020-08-18T10:34:12.452Z</time>
      </trkpt>
      <trkpt lat="50.50661" lon="3.44894">
        <ele>15.755879</ele>
        <time>2020-08-18T10:34:15.365Z</time>
      </trkpt>
      <trkpt lat="50.50652" lon="3.44916">
        <ele>15.780272</ele>
        <time>2020-08-18T10:34:18.053Z</time>
      </trkpt>
      <trkpt lat="50.50599" lon="3.45026">
        <ele>16.02451</ele>
        <time>2020-08-18T10:34:31.603Z</time>
      </trkpt>
      <trkpt lat="50.50551" lon="3.45111">
        <ele>16.330733</ele>
        <time>2020-08-18T10:34:43.367Z</time>
      </trkpt>
      <trkpt lat="50.50539" lon="3.45133">
        <ele>16.407169</ele>
        <time>2020-08-18T10:34:46.380Z</time>
      </trkpt>
      <trkpt lat="50.50531" lon="3.45152">
        <ele>16.469143</ele>
        <time>2020-08-18T10:34:49.144Z</time>
      </trkpt>
      <trkpt lat="50.50513" lon="3.45201">
        <ele>16.629234</ele>
        <time>2020-08-18T10:34:55.592Z</time>
      </trkpt>
      <trkpt lat="50.50477" lon="3.45312">
        <ele>17.163152</ele>
        <time>2020-08-18T10:35:09.889Z</time>
      </trkpt>
      <trkpt lat="50.50473" lon="3.45332">
        <ele>17.255901</ele>
        <time>2020-08-18T10:35:12.195Z</time>
      </trkpt>
      <trkpt lat="50.50471" lon="3.45343">
        <ele>17.301791</ele>
        <time>2020-08-18T10:35:13.530Z</time>
      </trkpt>
      <trkpt lat="50.50468" lon="3.45372">
        <ele>17.428779</ele>
        <time>2020-08-18T10:35:16.856Z</time>
      </trkpt>
      <trkpt lat="50.50458" lon="3.45443">
        <ele>17.741217</ele>
        <time>2020-08-18T10:35:24.757Z</time>
      </trkpt>
      <trkpt lat="50.50448" lon="3.4547">
        <ele>17.821561</ele>
        <time>2020-08-18T10:35:28.264Z</time>
      </trkpt>
      <trkpt lat="50.50444" lon="3.45482">
        <ele>17.821561</ele>
        <time>2020-08-18T10:35:29.792Z</time>
      </trkpt>
      <trkpt lat="50.50416" lon="3.45464">
        <ele>17.821561</ele>
        <time>2020-08-18T10:35:34.650Z</time>
      </trkpt>
      <trkpt lat="50.50407" lon="3.45459">
        <ele>17.821561</ele>
        <time>2020-08-18T10:35:36.194Z</time>
      </trkpt>
      <trkpt lat="50.50388" lon="3.45566">
        <ele>17.821561</ele>
        <time>2020-08-18T10:35:50.747Z</time>
      </trkpt>
      <trkpt lat="50.5038" lon="3.45564">
        <ele>17.821561</ele>
        <time>2020-08-18T10:35:52.185Z</time>
      </trkpt>
      <trkpt lat="50.50377" lon="3.45562">
        <ele>17.821561</ele>
        <time>2020-08-18T10:35:52.812Z</time>
      </trkpt>
    </trkseg>
  </trk>
</gpx>